CFG2362 EDDF-VTBS
Flight info
| Callsign | CFG2362 |
|---|---|
| Flight time | 10h 33m |
| Altitude | 35000 |
| Route | SULUS4D SULUS Z650 VEMUT DCT DITIS DCT TOVKA DCT ALAMU DCT BUDOP DCT BALBI DCT LUGEB DCT UDROS UM859 KARDE UL851 TBN UM11 REBLO M11 AMOKU/N0465F370 M11 RODAR A909 BIBIM B450 MAMED B449 RANAH L750 MERUN G452 LKN R460 GGC/N0469F390 R460 CEA L507 IGONI WILLA1C |
| Aircraft | A339/H-SDE1E2E3GHIJ1J4J7LM1OP2RVWXYZ/LB1D1 |
Departure
| Time | 2026-05-05 04:00 |
|---|---|
| Airport | Frankfurt Main Airport (EDDF) |
Arrival
| Time | 2026-05-05 14:33 |
|---|---|
| Airport | Suvarnabhumi Airport (VTBS) |
| Time | Latitude | Longitude | Altitude | Speed | Heading |
|---|---|---|---|---|---|
| 2026-05-05 03:17 | 50.04808 | 8.57702 | 381 ft | 0 kts | 233° |
| 2026-05-05 03:47 | 50.04813 | 8.57711 | 381 ft | 2 kts | 229° |
| 2026-05-05 03:47 | 50.04823 | 8.57729 | 382 ft | 1 kts | 231° |
| 2026-05-05 03:48 | 50.04829 | 8.57741 | 382 ft | 2 kts | 224° |
| 2026-05-05 03:48 | 50.04842 | 8.57752 | 382 ft | 2 kts | 190° |
| 2026-05-05 03:48 | 50.04857 | 8.57752 | 382 ft | 2 kts | 163° |
| 2026-05-05 03:48 | 50.04870 | 8.57741 | 383 ft | 2 kts | 135° |
| 2026-05-05 03:49 | 50.04877 | 8.57727 | 383 ft | 0 kts | 115° |
| 2026-05-05 03:49 | 50.04878 | 8.57722 | 383 ft | 0 kts | 114° |
| 2026-05-05 03:50 | 50.04877 | 8.57728 | 383 ft | 1 kts | 114° |
| 2026-05-05 03:50 | 50.04869 | 8.57755 | 382 ft | 3 kts | 114° |
| 2026-05-05 03:51 | 50.04855 | 8.57803 | 382 ft | 5 kts | 114° |
| 2026-05-05 03:51 | 50.04832 | 8.57862 | 382 ft | 6 kts | 131° |
| 2026-05-05 03:51 | 50.04796 | 8.57908 | 382 ft | 6 kts | 153° |
| 2026-05-05 03:51 | 50.04748 | 8.57915 | 382 ft | 7 kts | 194° |
| 2026-05-05 03:52 | 50.04702 | 8.57852 | 380 ft | 10 kts | 239° |
| 2026-05-05 03:52 | 50.04668 | 8.57738 | 379 ft | 12 kts | 248° |
| 2026-05-05 03:52 | 50.04639 | 8.57613 | 378 ft | 12 kts | 251° |
| 2026-05-05 03:52 | 50.04607 | 8.57477 | 378 ft | 13 kts | 250° |
| 2026-05-05 03:53 | 50.04576 | 8.57348 | 380 ft | 12 kts | 250° |
| 2026-05-05 03:53 | 50.04544 | 8.57214 | 379 ft | 14 kts | 250° |
| 2026-05-05 03:53 | 50.04506 | 8.57055 | 379 ft | 16 kts | 250° |
| 2026-05-05 03:53 | 50.04464 | 8.56877 | 378 ft | 18 kts | 250° |
| 2026-05-05 03:54 | 50.04417 | 8.56676 | 374 ft | 21 kts | 251° |
| 2026-05-05 03:54 | 50.04363 | 8.56455 | 372 ft | 22 kts | 249° |
| 2026-05-05 03:54 | 50.04305 | 8.56211 | 368 ft | 24 kts | 251° |
| 2026-05-05 03:54 | 50.04246 | 8.55956 | 365 ft | 25 kts | 250° |
| 2026-05-05 03:55 | 50.04182 | 8.55693 | 363 ft | 26 kts | 249° |
| 2026-05-05 03:55 | 50.04117 | 8.55428 | 363 ft | 25 kts | 250° |
| 2026-05-05 03:55 | 50.04056 | 8.55165 | 361 ft | 26 kts | 251° |
| 2026-05-05 03:55 | 50.03989 | 8.54885 | 355 ft | 27 kts | 249° |
| 2026-05-05 03:56 | 50.03920 | 8.54600 | 351 ft | 28 kts | 249° |
| 2026-05-05 03:56 | 50.03840 | 8.54323 | 349 ft | 27 kts | 241° |
| 2026-05-05 03:56 | 50.03761 | 8.54067 | 353 ft | 24 kts | 249° |
| 2026-05-05 03:56 | 50.03706 | 8.53834 | 356 ft | 21 kts | 251° |
| 2026-05-05 03:57 | 50.03655 | 8.53618 | 355 ft | 19 kts | 249° |
| 2026-05-05 03:57 | 50.03616 | 8.53471 | 355 ft | 13 kts | 242° |
| 2026-05-05 03:57 | 50.03542 | 8.53373 | 351 ft | 15 kts | 207° |
| 2026-05-05 03:57 | 50.03442 | 8.53314 | 348 ft | 14 kts | 186° |
| 2026-05-05 03:58 | 50.03366 | 8.53342 | 346 ft | 5 kts | 142° |
| 2026-05-05 03:58 | 50.03363 | 8.53346 | 346 ft | 0 kts | 139° |
| 2026-05-05 03:58 | 50.03359 | 8.53353 | 346 ft | 4 kts | 138° |
| 2026-05-05 03:59 | 50.03314 | 8.53430 | 345 ft | 14 kts | 124° |
| 2026-05-05 03:59 | 50.03301 | 8.53616 | 344 ft | 22 kts | 75° |
| 2026-05-05 03:59 | 50.03424 | 8.54147 | 344 ft | 82 kts | 69° |
| 2026-05-05 03:59 | 50.03693 | 8.55256 | 351 ft | 135 kts | 69° |
| 2026-05-05 04:00 | 50.04080 | 8.56878 | 367 ft | 179 kts | 69° |
| 2026-05-05 04:00 | 50.04514 | 8.58800 | 771 ft | 189 kts | 70° |
| 2026-05-05 04:00 | 50.04936 | 8.60671 | 1448 ft | 185 kts | 71° |
| 2026-05-05 04:00 | 50.05360 | 8.62556 | 2045 ft | 186 kts | 71° |
| 2026-05-05 04:01 | 50.05786 | 8.64439 | 2524 ft | 185 kts | 71° |
| 2026-05-05 04:01 | 50.06216 | 8.66351 | 2959 ft | 186 kts | 72° |
| 2026-05-05 04:01 | 50.06645 | 8.68270 | 3383 ft | 187 kts | 72° |
| 2026-05-05 04:01 | 50.07065 | 8.70209 | 3701 ft | 195 kts | 78° |
| 2026-05-05 04:02 | 50.07161 | 8.72351 | 3936 ft | 205 kts | 99° |
| 2026-05-05 04:02 | 50.06926 | 8.74587 | 4178 ft | 217 kts | 102° |
| 2026-05-05 04:02 | 50.06632 | 8.76972 | 4446 ft | 231 kts | 102° |
| 2026-05-05 04:02 | 50.06320 | 8.79525 | 4719 ft | 246 kts | 102° |
| 2026-05-05 04:03 | 50.06004 | 8.82228 | 4998 ft | 261 kts | 100° |
| 2026-05-05 04:03 | 50.05809 | 8.85093 | 5392 ft | 272 kts | 94° |
| 2026-05-05 04:03 | 50.05799 | 8.88028 | 5980 ft | 275 kts | 91° |
| 2026-05-05 04:03 | 50.05849 | 8.90993 | 6572 ft | 277 kts | 90° |
| 2026-05-05 04:04 | 50.05907 | 8.94011 | 7164 ft | 279 kts | 90° |
| 2026-05-05 04:04 | 50.05962 | 8.97015 | 7729 ft | 281 kts | 90° |
| 2026-05-05 04:04 | 50.06016 | 9.00046 | 8278 ft | 283 kts | 91° |
| 2026-05-05 04:04 | 50.06067 | 9.03123 | 8763 ft | 287 kts | 91° |
| 2026-05-05 04:05 | 50.06117 | 9.06233 | 9303 ft | 289 kts | 91° |
| 2026-05-05 04:05 | 50.06166 | 9.09376 | 9828 ft | 292 kts | 91° |
| 2026-05-05 04:05 | 50.06214 | 9.12552 | 10260 ft | 298 kts | 91° |
| 2026-05-05 04:05 | 50.06260 | 9.15814 | 10494 ft | 311 kts | 90° |
| 2026-05-05 04:06 | 50.06309 | 9.19247 | 10731 ft | 324 kts | 90° |
| 2026-05-05 04:06 | 50.06358 | 9.22818 | 10963 ft | 337 kts | 90° |
| 2026-05-05 04:06 | 50.06409 | 9.26575 | 11191 ft | 350 kts | 90° |
| 2026-05-05 04:06 | 50.06461 | 9.30402 | 11415 ft | 363 kts | 90° |
| 2026-05-05 04:07 | 50.06513 | 9.34386 | 11636 ft | 376 kts | 90° |
| 2026-05-05 04:07 | 50.06566 | 9.38529 | 11923 ft | 386 kts | 90° |
| 2026-05-05 04:07 | 50.06618 | 9.42678 | 12404 ft | 390 kts | 90° |
| 2026-05-05 04:07 | 50.06670 | 9.46890 | 12942 ft | 392 kts | 90° |
| 2026-05-05 04:08 | 50.06721 | 9.51158 | 13454 ft | 395 kts | 90° |
| 2026-05-05 04:08 | 50.06770 | 9.55414 | 13952 ft | 398 kts | 90° |
| 2026-05-05 04:08 | 50.06819 | 9.59756 | 14431 ft | 402 kts | 90° |
| 2026-05-05 04:08 | 50.06863 | 9.64057 | 14904 ft | 405 kts | 90° |
| 2026-05-05 04:09 | 50.06910 | 9.68547 | 15369 ft | 409 kts | 91° |
| 2026-05-05 04:09 | 50.06953 | 9.72995 | 15842 ft | 412 kts | 91° |
| 2026-05-05 04:09 | 50.06995 | 9.77421 | 16292 ft | 416 kts | 91° |
| 2026-05-05 04:09 | 50.07034 | 9.81944 | 16743 ft | 419 kts | 92° |
| 2026-05-05 04:10 | 50.07073 | 9.86497 | 17205 ft | 422 kts | 92° |
| 2026-05-05 04:10 | 50.07108 | 9.91004 | 17673 ft | 425 kts | 92° |
| 2026-05-05 04:10 | 50.07144 | 9.95602 | 18108 ft | 428 kts | 92° |
| 2026-05-05 04:10 | 50.07178 | 10.00297 | 18558 ft | 432 kts | 92° |
| 2026-05-05 04:11 | 50.07210 | 10.04945 | 19003 ft | 435 kts | 92° |
| 2026-05-05 04:11 | 50.07241 | 10.09680 | 19426 ft | 439 kts | 92° |
| 2026-05-05 04:11 | 50.07269 | 10.14413 | 19853 ft | 442 kts | 91° |
| 2026-05-05 04:11 | 50.07296 | 10.19159 | 20271 ft | 445 kts | 91° |
| 2026-05-05 04:12 | 50.07322 | 10.24030 | 20666 ft | 448 kts | 91° |
| 2026-05-05 04:12 | 50.07349 | 10.28858 | 21056 ft | 451 kts | 91° |
| 2026-05-05 04:12 | 50.07375 | 10.33724 | 21451 ft | 454 kts | 91° |
| 2026-05-05 04:12 | 50.07399 | 10.38657 | 21851 ft | 456 kts | 91° |
| 2026-05-05 04:13 | 50.07422 | 10.43570 | 22236 ft | 459 kts | 91° |
| 2026-05-05 04:13 | 50.07443 | 10.48562 | 22611 ft | 462 kts | 91° |
| 2026-05-05 04:13 | 50.07461 | 10.53540 | 22966 ft | 464 kts | 91° |
| 2026-05-05 04:13 | 50.07476 | 10.58586 | 23314 ft | 467 kts | 91° |
| 2026-05-05 04:14 | 50.07490 | 10.63637 | 23657 ft | 470 kts | 91° |
| 2026-05-05 04:14 | 50.07425 | 10.68759 | 23983 ft | 471 kts | 96° |
| 2026-05-05 04:14 | 50.07030 | 10.73795 | 24346 ft | 471 kts | 103° |
| 2026-05-05 04:14 | 50.06289 | 10.78753 | 24712 ft | 470 kts | 109° |
| 2026-05-05 04:15 | 50.05305 | 10.83604 | 25046 ft | 472 kts | 111° |
| 2026-05-05 04:15 | 50.04264 | 10.88466 | 25360 ft | 474 kts | 111° |
| 2026-05-05 04:15 | 50.03227 | 10.93265 | 25686 ft | 475 kts | 111° |
| 2026-05-05 04:15 | 50.02182 | 10.98125 | 26110 ft | 475 kts | 111° |
| 2026-05-05 04:16 | 50.01144 | 11.02972 | 26487 ft | 475 kts | 111° |
| 2026-05-05 04:16 | 50.00106 | 11.07843 | 26793 ft | 477 kts | 111° |
| 2026-05-05 04:16 | 49.99062 | 11.12740 | 27071 ft | 479 kts | 110° |
| 2026-05-05 04:16 | 49.98006 | 11.17679 | 27357 ft | 481 kts | 110° |
| 2026-05-05 04:17 | 49.96959 | 11.22570 | 27615 ft | 483 kts | 110° |
| 2026-05-05 04:17 | 49.95896 | 11.27571 | 27870 ft | 486 kts | 110° |
| 2026-05-05 04:17 | 49.94849 | 11.32508 | 28167 ft | 487 kts | 110° |
| 2026-05-05 04:17 | 49.93803 | 11.37435 | 28565 ft | 485 kts | 110° |
| 2026-05-05 04:18 | 49.92786 | 11.42437 | 28985 ft | 484 kts | 108° |
| 2026-05-05 04:18 | 49.91871 | 11.47401 | 29383 ft | 483 kts | 107° |
| 2026-05-05 04:18 | 49.90949 | 11.52444 | 29738 ft | 482 kts | 107° |
| 2026-05-05 04:18 | 49.90044 | 11.57383 | 30066 ft | 482 kts | 107° |
| 2026-05-05 04:19 | 49.89119 | 11.62444 | 30406 ft | 482 kts | 106° |
| 2026-05-05 04:19 | 49.88314 | 11.67572 | 30746 ft | 482 kts | 104° |
| 2026-05-05 04:19 | 49.87697 | 11.72672 | 31055 ft | 482 kts | 101° |
| 2026-05-05 04:19 | 49.87224 | 11.77808 | 31345 ft | 482 kts | 99° |
| 2026-05-05 04:20 | 49.86782 | 11.82928 | 31651 ft | 481 kts | 99° |
| 2026-05-05 04:20 | 49.86342 | 11.88038 | 31935 ft | 481 kts | 99° |
| 2026-05-05 04:20 | 49.85894 | 11.93149 | 32229 ft | 480 kts | 99° |
| 2026-05-05 04:20 | 49.85440 | 11.98247 | 32523 ft | 479 kts | 99° |
| 2026-05-05 04:21 | 49.84984 | 12.03318 | 32810 ft | 478 kts | 99° |
| 2026-05-05 04:21 | 49.84525 | 12.08406 | 33093 ft | 478 kts | 99° |
| 2026-05-05 04:21 | 49.84066 | 12.13482 | 33289 ft | 479 kts | 99° |
| 2026-05-05 04:21 | 49.83602 | 12.18576 | 33473 ft | 480 kts | 99° |
| 2026-05-05 04:22 | 49.83137 | 12.23660 | 33667 ft | 481 kts | 99° |
| 2026-05-05 04:22 | 49.82664 | 12.28790 | 33838 ft | 482 kts | 99° |
| 2026-05-05 04:22 | 49.82171 | 12.33925 | 34023 ft | 482 kts | 101° |
| 2026-05-05 04:22 | 49.81515 | 12.38998 | 34220 ft | 482 kts | 105° |
| 2026-05-05 04:23 | 49.80677 | 12.43973 | 34421 ft | 481 kts | 108° |
| 2026-05-05 04:23 | 49.79646 | 12.48886 | 34592 ft | 480 kts | 112° |
| 2026-05-05 04:23 | 49.78446 | 12.53636 | 34758 ft | 480 kts | 115° |
| 2026-05-05 04:23 | 49.77055 | 12.58324 | 34867 ft | 480 kts | 118° |
| 2026-05-05 04:24 | 49.74005 | 12.67577 | 34876 ft | 481 kts | 120° |
| 2026-05-05 04:25 | 49.69453 | 12.81316 | 34861 ft | 480 kts | 120° |
| 2026-05-05 04:25 | 49.66420 | 12.90467 | 34869 ft | 480 kts | 119° |
| 2026-05-05 04:26 | 49.63379 | 12.99613 | 34865 ft | 480 kts | 120° |
| 2026-05-05 04:26 | 49.60332 | 13.08747 | 34866 ft | 480 kts | 120° |
| 2026-05-05 04:27 | 49.57302 | 13.17800 | 34860 ft | 480 kts | 120° |
| 2026-05-05 04:27 | 49.54235 | 13.26924 | 34856 ft | 480 kts | 120° |
| 2026-05-05 04:28 | 49.51158 | 13.36052 | 34864 ft | 480 kts | 120° |
| 2026-05-05 04:28 | 49.48098 | 13.45097 | 34857 ft | 480 kts | 120° |
| 2026-05-05 04:29 | 49.45017 | 13.54171 | 34860 ft | 480 kts | 119° |
| 2026-05-05 04:29 | 49.41930 | 13.63226 | 34854 ft | 480 kts | 120° |
| 2026-05-05 04:30 | 49.38829 | 13.72297 | 34854 ft | 480 kts | 120° |
| 2026-05-05 04:30 | 49.35732 | 13.81316 | 34860 ft | 480 kts | 120° |
| 2026-05-05 04:31 | 49.32630 | 13.90320 | 34840 ft | 480 kts | 120° |
| 2026-05-05 04:31 | 49.29519 | 13.99319 | 34848 ft | 480 kts | 120° |
| 2026-05-05 04:32 | 49.26388 | 14.08348 | 34841 ft | 480 kts | 120° |
| 2026-05-05 04:32 | 49.23272 | 14.17304 | 34833 ft | 479 kts | 120° |
| 2026-05-05 04:33 | 49.20155 | 14.26230 | 34837 ft | 478 kts | 120° |
| 2026-05-05 04:33 | 49.17019 | 14.35176 | 34832 ft | 477 kts | 120° |
| 2026-05-05 04:34 | 49.13895 | 14.44055 | 34831 ft | 477 kts | 120° |
| 2026-05-05 04:34 | 49.10764 | 14.52933 | 34832 ft | 478 kts | 120° |
| 2026-05-05 04:35 | 49.07603 | 14.61857 | 34835 ft | 477 kts | 120° |
| 2026-05-05 04:35 | 49.04455 | 14.70721 | 34830 ft | 477 kts | 121° |
| 2026-05-05 04:36 | 49.01302 | 14.79563 | 34847 ft | 476 kts | 121° |
| 2026-05-05 04:36 | 48.98135 | 14.88420 | 34830 ft | 476 kts | 121° |
| 2026-05-05 04:37 | 48.94991 | 14.97191 | 34839 ft | 475 kts | 121° |
| 2026-05-05 04:37 | 48.91823 | 15.05988 | 34843 ft | 475 kts | 121° |
| 2026-05-05 04:38 | 48.88647 | 15.14881 | 34848 ft | 475 kts | 119° |
| 2026-05-05 04:38 | 48.85673 | 15.23744 | 34852 ft | 475 kts | 118° |
| 2026-05-05 04:39 | 48.82692 | 15.32652 | 34855 ft | 475 kts | 119° |
| 2026-05-05 04:39 | 48.79693 | 15.41545 | 34852 ft | 475 kts | 119° |
| 2026-05-05 04:40 | 48.76681 | 15.50427 | 34853 ft | 475 kts | 119° |
| 2026-05-05 04:40 | 48.73666 | 15.59282 | 34856 ft | 474 kts | 119° |
| 2026-05-05 04:41 | 48.70628 | 15.68173 | 34858 ft | 474 kts | 120° |
| 2026-05-05 04:41 | 48.67611 | 15.76973 | 34859 ft | 474 kts | 120° |
| 2026-05-05 04:42 | 48.64578 | 15.85788 | 34857 ft | 473 kts | 120° |
| 2026-05-05 04:42 | 48.61548 | 15.94566 | 34857 ft | 473 kts | 120° |
| 2026-05-05 04:43 | 48.58510 | 16.03337 | 34855 ft | 473 kts | 120° |
| 2026-05-05 04:43 | 48.55455 | 16.12127 | 34857 ft | 473 kts | 120° |
| 2026-05-05 04:44 | 48.52415 | 16.20845 | 34861 ft | 474 kts | 120° |
| 2026-05-05 04:44 | 48.49339 | 16.29629 | 34868 ft | 474 kts | 119° |
| 2026-05-05 04:45 | 48.46255 | 16.38415 | 34869 ft | 474 kts | 119° |
| 2026-05-05 04:45 | 48.43181 | 16.47143 | 34871 ft | 474 kts | 119° |
| 2026-05-05 04:46 | 48.40109 | 16.55838 | 34874 ft | 474 kts | 119° |
| 2026-05-05 04:46 | 48.37017 | 16.64560 | 34873 ft | 474 kts | 119° |
| 2026-05-05 04:47 | 48.33890 | 16.73352 | 34872 ft | 475 kts | 120° |
| 2026-05-05 04:47 | 48.30792 | 16.82034 | 34873 ft | 475 kts | 120° |
| 2026-05-05 04:48 | 48.27666 | 16.90763 | 34875 ft | 475 kts | 120° |
| 2026-05-05 04:48 | 48.24502 | 16.99403 | 34878 ft | 475 kts | 120° |
| 2026-05-05 04:49 | 48.21291 | 17.08005 | 34879 ft | 475 kts | 120° |
| 2026-05-05 04:49 | 48.18066 | 17.16639 | 34878 ft | 475 kts | 120° |
| 2026-05-05 04:50 | 48.14848 | 17.25238 | 34883 ft | 474 kts | 120° |
| 2026-05-05 04:50 | 48.11648 | 17.33765 | 34888 ft | 473 kts | 120° |
| 2026-05-05 04:51 | 48.08427 | 17.42325 | 34895 ft | 473 kts | 120° |
| 2026-05-05 04:51 | 48.05219 | 17.50820 | 34902 ft | 473 kts | 120° |
| 2026-05-05 04:52 | 48.01978 | 17.59378 | 34904 ft | 472 kts | 120° |
| 2026-05-05 04:52 | 47.98749 | 17.67879 | 34913 ft | 471 kts | 121° |
| 2026-05-05 04:53 | 47.95505 | 17.76396 | 34917 ft | 472 kts | 121° |
| 2026-05-05 04:53 | 47.92273 | 17.84847 | 34928 ft | 472 kts | 121° |
| 2026-05-05 04:54 | 47.88990 | 17.93404 | 34934 ft | 472 kts | 121° |
| 2026-05-05 04:54 | 47.85739 | 18.01860 | 34943 ft | 472 kts | 121° |
| 2026-05-05 04:55 | 47.82491 | 18.10282 | 34945 ft | 471 kts | 121° |
| 2026-05-05 04:55 | 47.79227 | 18.18718 | 34949 ft | 472 kts | 121° |
| 2026-05-05 04:56 | 47.75964 | 18.27118 | 34950 ft | 472 kts | 121° |
| 2026-05-05 04:56 | 47.72846 | 18.35640 | 34951 ft | 472 kts | 116° |
| 2026-05-05 04:57 | 47.70079 | 18.44451 | 34955 ft | 473 kts | 115° |
| 2026-05-05 04:57 | 47.67317 | 18.53277 | 34957 ft | 473 kts | 115° |
| 2026-05-05 04:58 | 47.64542 | 18.62110 | 34965 ft | 473 kts | 115° |
| 2026-05-05 04:58 | 47.61751 | 18.70960 | 34970 ft | 474 kts | 116° |
| 2026-05-05 04:59 | 47.58955 | 18.79791 | 34974 ft | 474 kts | 116° |
| 2026-05-05 04:59 | 47.56160 | 18.88588 | 34984 ft | 474 kts | 116° |
| 2026-05-05 05:00 | 47.53342 | 18.97428 | 34990 ft | 474 kts | 115° |
| 2026-05-05 05:00 | 47.50532 | 19.06212 | 34988 ft | 473 kts | 115° |
| 2026-05-05 05:01 | 47.47717 | 19.14981 | 34988 ft | 474 kts | 115° |
| 2026-05-05 05:01 | 47.44878 | 19.23797 | 34990 ft | 475 kts | 115° |
| 2026-05-05 05:02 | 47.42054 | 19.32536 | 34992 ft | 475 kts | 115° |
| 2026-05-05 05:02 | 47.39212 | 19.41295 | 34993 ft | 475 kts | 115° |
| 2026-05-05 05:03 | 47.36340 | 19.50115 | 34994 ft | 476 kts | 115° |
| 2026-05-05 05:03 | 47.33487 | 19.58853 | 34996 ft | 476 kts | 115° |
| 2026-05-05 05:04 | 47.30593 | 19.67685 | 34998 ft | 476 kts | 116° |
| 2026-05-05 05:04 | 47.27731 | 19.76389 | 35000 ft | 475 kts | 115° |
| 2026-05-05 05:05 | 47.24858 | 19.85101 | 35002 ft | 474 kts | 115° |
| 2026-05-05 05:05 | 47.21977 | 19.93807 | 35004 ft | 474 kts | 115° |
| 2026-05-05 05:06 | 47.19087 | 20.02502 | 35005 ft | 476 kts | 115° |
| 2026-05-05 05:06 | 47.16177 | 20.11233 | 34996 ft | 476 kts | 115° |
| 2026-05-05 05:07 | 47.13277 | 20.19907 | 35002 ft | 476 kts | 115° |
| 2026-05-05 05:07 | 47.10371 | 20.28570 | 35000 ft | 476 kts | 115° |
| 2026-05-05 05:08 | 47.07446 | 20.37260 | 34996 ft | 476 kts | 115° |
| 2026-05-05 05:08 | 47.04530 | 20.45890 | 34996 ft | 475 kts | 115° |
| 2026-05-05 05:09 | 47.01595 | 20.54553 | 34997 ft | 476 kts | 115° |
| 2026-05-05 05:09 | 46.98655 | 20.63202 | 34997 ft | 476 kts | 115° |
| 2026-05-05 05:10 | 46.95682 | 20.71916 | 35002 ft | 477 kts | 115° |
| 2026-05-05 05:10 | 46.92726 | 20.80549 | 35016 ft | 477 kts | 115° |
| 2026-05-05 05:11 | 46.89737 | 20.89256 | 35017 ft | 478 kts | 115° |
| 2026-05-05 05:11 | 46.86755 | 20.97917 | 35015 ft | 478 kts | 115° |
| 2026-05-05 05:12 | 46.83778 | 21.06529 | 35031 ft | 478 kts | 115° |
| 2026-05-05 05:12 | 46.80789 | 21.15153 | 35033 ft | 478 kts | 115° |
| 2026-05-05 05:13 | 46.77780 | 21.23808 | 35033 ft | 478 kts | 115° |
| 2026-05-05 05:13 | 46.74783 | 21.32399 | 35035 ft | 478 kts | 115° |
| 2026-05-05 05:14 | 46.71775 | 21.40995 | 35029 ft | 478 kts | 115° |
| 2026-05-05 05:14 | 46.68746 | 21.49585 | 35033 ft | 478 kts | 116° |
| 2026-05-05 05:15 | 46.65490 | 21.58006 | 35038 ft | 479 kts | 117° |
| 2026-05-05 05:15 | 46.62195 | 21.66451 | 35029 ft | 479 kts | 118° |
| 2026-05-05 05:16 | 46.58930 | 21.74811 | 35036 ft | 479 kts | 118° |
| 2026-05-05 05:16 | 46.55638 | 21.83214 | 35031 ft | 479 kts | 118° |
| 2026-05-05 05:17 | 46.52358 | 21.91566 | 35032 ft | 479 kts | 118° |
| 2026-05-05 05:17 | 46.49052 | 21.99957 | 35033 ft | 479 kts | 117° |
| 2026-05-05 05:18 | 46.45751 | 22.08316 | 35034 ft | 480 kts | 117° |
| 2026-05-05 05:18 | 46.42439 | 22.16674 | 35037 ft | 479 kts | 117° |
| 2026-05-05 05:19 | 46.39120 | 22.25022 | 35041 ft | 479 kts | 117° |
| 2026-05-05 05:19 | 46.35809 | 22.33327 | 35043 ft | 480 kts | 117° |
| 2026-05-05 05:20 | 46.32473 | 22.41668 | 35046 ft | 480 kts | 117° |
| 2026-05-05 05:20 | 46.29136 | 22.49986 | 35050 ft | 480 kts | 117° |
| 2026-05-05 05:21 | 46.25782 | 22.58321 | 35051 ft | 481 kts | 117° |
| 2026-05-05 05:21 | 46.22419 | 22.66655 | 35046 ft | 481 kts | 118° |
| 2026-05-05 05:22 | 46.19051 | 22.74977 | 35039 ft | 481 kts | 118° |
| 2026-05-05 05:22 | 46.15675 | 22.83291 | 35043 ft | 481 kts | 118° |
| 2026-05-05 05:23 | 46.12300 | 22.91581 | 35047 ft | 481 kts | 118° |
| 2026-05-05 05:23 | 46.08923 | 22.99844 | 35041 ft | 481 kts | 118° |
| 2026-05-05 05:24 | 46.05542 | 23.08099 | 35056 ft | 482 kts | 117° |
| 2026-05-05 05:24 | 46.02131 | 23.16402 | 35054 ft | 481 kts | 117° |
| 2026-05-05 05:25 | 45.98735 | 23.24641 | 35050 ft | 481 kts | 117° |
| 2026-05-05 05:25 | 45.95335 | 23.32869 | 35050 ft | 481 kts | 117° |
| 2026-05-05 05:26 | 45.91919 | 23.41108 | 35043 ft | 480 kts | 117° |
| 2026-05-05 05:26 | 45.88488 | 23.49357 | 35048 ft | 480 kts | 117° |
| 2026-05-05 05:27 | 45.85077 | 23.57536 | 35055 ft | 479 kts | 117° |
| 2026-05-05 05:27 | 45.79948 | 23.69795 | 35072 ft | 479 kts | 118° |
| 2026-05-05 05:28 | 45.76523 | 23.77946 | 35077 ft | 479 kts | 118° |
| 2026-05-05 05:28 | 45.73082 | 23.86111 | 35068 ft | 479 kts | 118° |
| 2026-05-05 05:29 | 45.69658 | 23.94215 | 35061 ft | 479 kts | 118° |
| 2026-05-05 05:29 | 45.66215 | 24.02339 | 35061 ft | 479 kts | 118° |
| 2026-05-05 05:30 | 45.62761 | 24.10467 | 35059 ft | 479 kts | 118° |
| 2026-05-05 05:30 | 45.59321 | 24.18537 | 35056 ft | 478 kts | 118° |
| 2026-05-05 05:31 | 45.55873 | 24.26602 | 35059 ft | 479 kts | 118° |
| 2026-05-05 05:31 | 45.52412 | 24.34672 | 35078 ft | 478 kts | 118° |
| 2026-05-05 05:32 | 45.48932 | 24.42767 | 35094 ft | 479 kts | 118° |
| 2026-05-05 05:32 | 45.45465 | 24.50812 | 35109 ft | 478 kts | 118° |
| 2026-05-05 05:33 | 45.42001 | 24.58821 | 35109 ft | 478 kts | 118° |
| 2026-05-05 05:33 | 45.38508 | 24.66877 | 35107 ft | 478 kts | 119° |
| 2026-05-05 05:34 | 45.35017 | 24.74905 | 35105 ft | 478 kts | 118° |
| 2026-05-05 05:34 | 45.31526 | 24.82911 | 35105 ft | 479 kts | 119° |
| 2026-05-05 05:35 | 45.28026 | 24.90914 | 35089 ft | 479 kts | 118° |
| 2026-05-05 05:35 | 45.24514 | 24.98924 | 35069 ft | 478 kts | 119° |
| 2026-05-05 05:36 | 45.21011 | 25.06886 | 35063 ft | 478 kts | 118° |
| 2026-05-05 05:36 | 45.17502 | 25.14842 | 35066 ft | 478 kts | 118° |
| 2026-05-05 05:37 | 45.13980 | 25.22809 | 35067 ft | 478 kts | 118° |
| 2026-05-05 05:37 | 45.10437 | 25.30801 | 35066 ft | 478 kts | 119° |
| 2026-05-05 05:38 | 45.06917 | 25.38717 | 35061 ft | 478 kts | 118° |
| 2026-05-05 05:38 | 45.03379 | 25.46650 | 35055 ft | 477 kts | 119° |
| 2026-05-05 05:39 | 44.99857 | 25.54531 | 35054 ft | 477 kts | 118° |
| 2026-05-05 05:39 | 44.96325 | 25.62412 | 35054 ft | 478 kts | 118° |
| 2026-05-05 05:40 | 44.92735 | 25.70404 | 35052 ft | 478 kts | 119° |
| 2026-05-05 05:40 | 44.89257 | 25.78402 | 35049 ft | 477 kts | 117° |
| 2026-05-05 05:41 | 44.85966 | 25.86472 | 35049 ft | 477 kts | 117° |
| 2026-05-05 05:41 | 44.82684 | 25.94518 | 35051 ft | 477 kts | 117° |
| 2026-05-05 05:42 | 44.79372 | 26.02620 | 35052 ft | 477 kts | 116° |
| 2026-05-05 05:42 | 44.76069 | 26.10676 | 35051 ft | 476 kts | 116° |
| 2026-05-05 05:43 | 44.72765 | 26.18713 | 35051 ft | 477 kts | 117° |
| 2026-05-05 05:43 | 44.69447 | 26.26761 | 35053 ft | 478 kts | 117° |
| 2026-05-05 05:44 | 44.66118 | 26.34812 | 35050 ft | 478 kts | 117° |
| 2026-05-05 05:44 | 44.62783 | 26.42851 | 35050 ft | 478 kts | 116° |
| 2026-05-05 05:45 | 44.59445 | 26.50879 | 35051 ft | 478 kts | 117° |
| 2026-05-05 05:45 | 44.56111 | 26.58874 | 35045 ft | 478 kts | 117° |
| 2026-05-05 05:46 | 44.52733 | 26.66952 | 35044 ft | 478 kts | 117° |
| 2026-05-05 05:46 | 44.49379 | 26.74947 | 35039 ft | 479 kts | 117° |
| 2026-05-05 05:47 | 44.46001 | 26.82978 | 35041 ft | 479 kts | 118° |
| 2026-05-05 05:47 | 44.42645 | 26.90935 | 35044 ft | 479 kts | 118° |
| 2026-05-05 05:48 | 44.39249 | 26.98964 | 35042 ft | 479 kts | 118° |
| 2026-05-05 05:48 | 44.35869 | 27.06936 | 35044 ft | 479 kts | 118° |
| 2026-05-05 05:49 | 44.32475 | 27.14914 | 35044 ft | 479 kts | 118° |
| 2026-05-05 05:49 | 44.29098 | 27.22831 | 35048 ft | 479 kts | 118° |
| 2026-05-05 05:50 | 44.25683 | 27.30815 | 35050 ft | 479 kts | 118° |
| 2026-05-05 05:50 | 44.22278 | 27.38753 | 35054 ft | 478 kts | 118° |
| 2026-05-05 05:51 | 44.18876 | 27.46664 | 35052 ft | 478 kts | 118° |
| 2026-05-05 05:51 | 44.15464 | 27.54576 | 35054 ft | 478 kts | 118° |
| 2026-05-05 05:52 | 44.12032 | 27.62510 | 35056 ft | 478 kts | 118° |
| 2026-05-05 05:52 | 44.08612 | 27.70397 | 35061 ft | 478 kts | 118° |
| 2026-05-05 05:53 | 44.05175 | 27.78305 | 35059 ft | 479 kts | 119° |
| 2026-05-05 05:53 | 44.01745 | 27.86171 | 35065 ft | 479 kts | 119° |
| 2026-05-05 05:54 | 43.98281 | 27.94093 | 35066 ft | 479 kts | 118° |
| 2026-05-05 05:54 | 43.94844 | 28.01934 | 35067 ft | 478 kts | 118° |
| 2026-05-05 05:55 | 43.91400 | 28.09771 | 35068 ft | 477 kts | 119° |
| 2026-05-05 05:55 | 43.87938 | 28.17630 | 35066 ft | 476 kts | 119° |
| 2026-05-05 05:56 | 43.84505 | 28.25403 | 35063 ft | 475 kts | 119° |
| 2026-05-05 05:56 | 43.81079 | 28.33138 | 35062 ft | 473 kts | 119° |
| 2026-05-05 05:57 | 43.77649 | 28.40868 | 35064 ft | 472 kts | 119° |
| 2026-05-05 05:57 | 43.74225 | 28.48555 | 35059 ft | 471 kts | 119° |
| 2026-05-05 05:58 | 43.70747 | 28.56200 | 35061 ft | 470 kts | 120° |
| 2026-05-05 05:58 | 43.67227 | 28.63798 | 35054 ft | 468 kts | 120° |
| 2026-05-05 05:59 | 43.63725 | 28.71364 | 35064 ft | 468 kts | 121° |
| 2026-05-05 05:59 | 43.60253 | 28.78858 | 35057 ft | 468 kts | 121° |
| 2026-05-05 06:00 | 43.56755 | 28.86392 | 35060 ft | 468 kts | 121° |
| 2026-05-05 06:00 | 43.53243 | 28.93938 | 35061 ft | 468 kts | 121° |
| 2026-05-05 06:01 | 43.49737 | 29.01451 | 35059 ft | 467 kts | 121° |
| 2026-05-05 06:01 | 43.46225 | 29.08961 | 35061 ft | 467 kts | 121° |
| 2026-05-05 06:02 | 43.42724 | 29.16422 | 35063 ft | 467 kts | 121° |
| 2026-05-05 06:02 | 43.39207 | 29.23904 | 35069 ft | 467 kts | 121° |
| 2026-05-05 06:03 | 43.35694 | 29.31358 | 35078 ft | 467 kts | 121° |
| 2026-05-05 06:03 | 43.32152 | 29.38858 | 35067 ft | 467 kts | 121° |
| 2026-05-05 06:04 | 43.28642 | 29.46269 | 35075 ft | 468 kts | 121° |
| 2026-05-05 06:04 | 43.25093 | 29.53741 | 35063 ft | 468 kts | 121° |
| 2026-05-05 06:05 | 43.21539 | 29.61204 | 35079 ft | 468 kts | 121° |
| 2026-05-05 06:05 | 43.17982 | 29.68657 | 35067 ft | 469 kts | 121° |
| 2026-05-05 06:06 | 43.14409 | 29.76125 | 35079 ft | 468 kts | 121° |
| 2026-05-05 06:06 | 43.10845 | 29.83550 | 35054 ft | 468 kts | 121° |
| 2026-05-05 06:07 | 43.07280 | 29.90968 | 35051 ft | 468 kts | 121° |
| 2026-05-05 06:07 | 43.03715 | 29.98365 | 35049 ft | 468 kts | 121° |
| 2026-05-05 06:08 | 43.00134 | 30.05780 | 35031 ft | 468 kts | 121° |
| 2026-05-05 06:08 | 42.96550 | 30.13177 | 35032 ft | 468 kts | 120° |
| 2026-05-05 06:09 | 42.92974 | 30.20540 | 35031 ft | 469 kts | 120° |
| 2026-05-05 06:09 | 42.89337 | 30.28012 | 35026 ft | 469 kts | 120° |
| 2026-05-05 06:10 | 42.85754 | 30.35361 | 35021 ft | 469 kts | 120° |
| 2026-05-05 06:10 | 42.82135 | 30.42773 | 35019 ft | 469 kts | 120° |
| 2026-05-05 06:11 | 42.78575 | 30.50161 | 35025 ft | 467 kts | 117° |
| 2026-05-05 06:11 | 42.75640 | 30.57919 | 35019 ft | 463 kts | 108° |
| 2026-05-05 06:12 | 42.73531 | 30.66152 | 35014 ft | 459 kts | 101° |
| 2026-05-05 06:12 | 42.72287 | 30.74585 | 35012 ft | 454 kts | 94° |
| 2026-05-05 06:13 | 42.71438 | 30.83042 | 35014 ft | 453 kts | 94° |
| 2026-05-05 06:13 | 42.70583 | 30.91539 | 35008 ft | 452 kts | 94° |
| 2026-05-05 06:14 | 42.69718 | 30.99969 | 35002 ft | 452 kts | 93° |
| 2026-05-05 06:14 | 42.68847 | 31.08388 | 34991 ft | 452 kts | 93° |
| 2026-05-05 06:15 | 42.67967 | 31.16817 | 34987 ft | 453 kts | 93° |
| 2026-05-05 06:15 | 42.67081 | 31.25233 | 34998 ft | 452 kts | 93° |
| 2026-05-05 06:16 | 42.66185 | 31.33670 | 34988 ft | 452 kts | 93° |
| 2026-05-05 06:16 | 42.65281 | 31.42123 | 34972 ft | 453 kts | 93° |
| 2026-05-05 06:17 | 42.64377 | 31.50520 | 34993 ft | 452 kts | 93° |
| 2026-05-05 06:17 | 42.63460 | 31.58989 | 34980 ft | 453 kts | 93° |
| 2026-05-05 06:18 | 42.62540 | 31.67432 | 34980 ft | 453 kts | 94° |
| 2026-05-05 06:18 | 42.61615 | 31.75849 | 34996 ft | 453 kts | 94° |
| 2026-05-05 06:19 | 42.60688 | 31.84240 | 34981 ft | 454 kts | 94° |
| 2026-05-05 06:19 | 42.59751 | 31.92677 | 34982 ft | 454 kts | 94° |
| 2026-05-05 06:20 | 42.58802 | 32.01142 | 34992 ft | 453 kts | 94° |
| 2026-05-05 06:20 | 42.57863 | 32.09546 | 34986 ft | 452 kts | 94° |
| 2026-05-05 06:21 | 42.56901 | 32.17925 | 34983 ft | 451 kts | 94° |
| 2026-05-05 06:21 | 42.55935 | 32.26314 | 34979 ft | 451 kts | 94° |
| 2026-05-05 06:22 | 42.54964 | 32.34699 | 34995 ft | 450 kts | 94° |
| 2026-05-05 06:22 | 42.53997 | 32.43017 | 34998 ft | 450 kts | 94° |
| 2026-05-05 06:23 | 42.53016 | 32.51402 | 34991 ft | 450 kts | 94° |
| 2026-05-05 06:23 | 42.52037 | 32.59704 | 34986 ft | 449 kts | 94° |
| 2026-05-05 06:24 | 42.51046 | 32.68074 | 34990 ft | 448 kts | 94° |
| 2026-05-05 06:24 | 42.50057 | 32.76370 | 34984 ft | 448 kts | 94° |
| 2026-05-05 06:25 | 42.49064 | 32.84640 | 34982 ft | 448 kts | 94° |
| 2026-05-05 06:25 | 42.48063 | 32.92947 | 34991 ft | 447 kts | 94° |
| 2026-05-05 06:26 | 42.47058 | 33.01237 | 34983 ft | 448 kts | 94° |
| 2026-05-05 06:26 | 42.46042 | 33.09541 | 34960 ft | 447 kts | 95° |
| 2026-05-05 06:27 | 42.44514 | 33.21893 | 34994 ft | 446 kts | 95° |
| 2026-05-05 06:28 | 42.43488 | 33.30154 | 34980 ft | 446 kts | 95° |
| 2026-05-05 06:28 | 42.42457 | 33.38392 | 34956 ft | 445 kts | 95° |
| 2026-05-05 06:29 | 42.41419 | 33.46615 | 34962 ft | 447 kts | 95° |
| 2026-05-05 06:29 | 42.40371 | 33.54861 | 34968 ft | 446 kts | 95° |
| 2026-05-05 06:30 | 42.39322 | 33.63093 | 34983 ft | 446 kts | 95° |
| 2026-05-05 06:30 | 42.38262 | 33.71378 | 34980 ft | 446 kts | 96° |
| 2026-05-05 06:31 | 42.37206 | 33.79598 | 34987 ft | 446 kts | 96° |
| 2026-05-05 06:31 | 42.36139 | 33.87842 | 34986 ft | 447 kts | 96° |
| 2026-05-05 06:32 | 42.35057 | 33.96122 | 34977 ft | 449 kts | 96° |
| 2026-05-05 06:32 | 42.33969 | 34.04415 | 34983 ft | 448 kts | 96° |
| 2026-05-05 06:33 | 42.32887 | 34.12647 | 34988 ft | 448 kts | 96° |
| 2026-05-05 06:33 | 42.31800 | 34.20894 | 34998 ft | 448 kts | 97° |
| 2026-05-05 06:34 | 42.30701 | 34.29188 | 34994 ft | 448 kts | 97° |
| 2026-05-05 06:34 | 42.29596 | 34.37455 | 34997 ft | 449 kts | 97° |
| 2026-05-05 06:35 | 42.28481 | 34.45694 | 34984 ft | 449 kts | 97° |
| 2026-05-05 06:35 | 42.27363 | 34.53933 | 34984 ft | 449 kts | 97° |
| 2026-05-05 06:36 | 42.26237 | 34.62214 | 34993 ft | 449 kts | 97° |
| 2026-05-05 06:36 | 42.25101 | 34.70529 | 34990 ft | 449 kts | 98° |
| 2026-05-05 06:37 | 42.23961 | 34.78808 | 34995 ft | 450 kts | 98° |
| 2026-05-05 06:37 | 42.22812 | 34.87051 | 34989 ft | 450 kts | 98° |
| 2026-05-05 06:38 | 42.21648 | 34.95352 | 34999 ft | 451 kts | 98° |
| 2026-05-05 06:38 | 42.20489 | 35.03590 | 35000 ft | 451 kts | 98° |
| 2026-05-05 06:39 | 42.19320 | 35.11878 | 34989 ft | 452 kts | 98° |
| 2026-05-05 06:39 | 42.18142 | 35.20198 | 34986 ft | 452 kts | 98° |
| 2026-05-05 06:40 | 42.16960 | 35.28487 | 34994 ft | 452 kts | 98° |
| 2026-05-05 06:40 | 42.15773 | 35.36779 | 34985 ft | 452 kts | 99° |
| 2026-05-05 06:41 | 42.14570 | 35.45101 | 34991 ft | 454 kts | 99° |
| 2026-05-05 06:41 | 42.13361 | 35.53404 | 34998 ft | 454 kts | 99° |
| 2026-05-05 06:42 | 42.12143 | 35.61751 | 34993 ft | 455 kts | 99° |
| 2026-05-05 06:42 | 42.10925 | 35.70069 | 34997 ft | 456 kts | 99° |
| 2026-05-05 06:43 | 42.09693 | 35.78447 | 34990 ft | 456 kts | 100° |
| 2026-05-05 06:43 | 42.08466 | 35.86752 | 34990 ft | 456 kts | 100° |
| 2026-05-05 06:44 | 42.07221 | 35.95124 | 34997 ft | 457 kts | 100° |
| 2026-05-05 06:44 | 42.05971 | 36.03484 | 34990 ft | 457 kts | 100° |
| 2026-05-05 06:45 | 42.04716 | 36.11852 | 34993 ft | 458 kts | 100° |
| 2026-05-05 06:45 | 42.03457 | 36.20200 | 34985 ft | 459 kts | 100° |
| 2026-05-05 06:46 | 42.02181 | 36.28609 | 34997 ft | 459 kts | 100° |
| 2026-05-05 06:46 | 42.00908 | 36.36951 | 34994 ft | 459 kts | 101° |
| 2026-05-05 06:47 | 41.99622 | 36.45343 | 34992 ft | 458 kts | 101° |
| 2026-05-05 06:47 | 41.98337 | 36.53684 | 34989 ft | 458 kts | 101° |
| 2026-05-05 06:48 | 41.97048 | 36.62012 | 34989 ft | 458 kts | 101° |
| 2026-05-05 06:48 | 41.95746 | 36.70381 | 34995 ft | 459 kts | 102° |
| 2026-05-05 06:49 | 41.94439 | 36.78749 | 34989 ft | 459 kts | 102° |
| 2026-05-05 06:49 | 41.93125 | 36.87135 | 34989 ft | 460 kts | 102° |
| 2026-05-05 06:50 | 41.91807 | 36.95480 | 34988 ft | 460 kts | 102° |
| 2026-05-05 06:50 | 41.90249 | 37.03795 | 34983 ft | 460 kts | 107° |
| 2026-05-05 06:51 | 41.88040 | 37.11893 | 34984 ft | 460 kts | 112° |
| 2026-05-05 06:51 | 41.85548 | 37.19810 | 34978 ft | 461 kts | 112° |
| 2026-05-05 06:52 | 41.83056 | 37.27710 | 34978 ft | 460 kts | 112° |
| 2026-05-05 06:52 | 41.80579 | 37.35549 | 34980 ft | 460 kts | 112° |
| 2026-05-05 06:53 | 41.78079 | 37.43445 | 34980 ft | 460 kts | 113° |
| 2026-05-05 06:53 | 41.75584 | 37.51305 | 34976 ft | 461 kts | 113° |
| 2026-05-05 06:54 | 41.73083 | 37.59163 | 34971 ft | 462 kts | 113° |
| 2026-05-05 06:54 | 41.70536 | 37.67131 | 34975 ft | 461 kts | 114° |
| 2026-05-05 06:55 | 41.68011 | 37.74976 | 34972 ft | 461 kts | 114° |
| 2026-05-05 06:55 | 41.65492 | 37.82792 | 34972 ft | 462 kts | 114° |
| 2026-05-05 06:56 | 41.62956 | 37.90653 | 34971 ft | 462 kts | 114° |
| 2026-05-05 06:56 | 41.60405 | 37.98534 | 34969 ft | 463 kts | 114° |
| 2026-05-05 06:57 | 41.57864 | 38.06370 | 34971 ft | 463 kts | 114° |
| 2026-05-05 06:57 | 41.55303 | 38.14245 | 34973 ft | 463 kts | 114° |
| 2026-05-05 06:58 | 41.52731 | 38.22129 | 34972 ft | 464 kts | 115° |
| 2026-05-05 06:58 | 41.50165 | 38.29978 | 34978 ft | 465 kts | 115° |
| 2026-05-05 06:59 | 41.47583 | 38.37847 | 34978 ft | 464 kts | 115° |
| 2026-05-05 06:59 | 41.45007 | 38.45683 | 34975 ft | 465 kts | 115° |
| 2026-05-05 07:00 | 41.42396 | 38.53598 | 34980 ft | 465 kts | 115° |
| 2026-05-05 07:00 | 41.39805 | 38.61439 | 34976 ft | 466 kts | 115° |
| 2026-05-05 07:01 | 41.37172 | 38.69385 | 34975 ft | 466 kts | 116° |
| 2026-05-05 07:01 | 41.34557 | 38.77251 | 34969 ft | 467 kts | 116° |
| 2026-05-05 07:02 | 41.31956 | 38.85128 | 34971 ft | 467 kts | 115° |
| 2026-05-05 07:02 | 41.29375 | 38.93032 | 34967 ft | 468 kts | 115° |
| 2026-05-05 07:03 | 41.26786 | 39.00936 | 34970 ft | 468 kts | 116° |
| 2026-05-05 07:03 | 41.24184 | 39.08860 | 34967 ft | 468 kts | 116° |
| 2026-05-05 07:04 | 41.21576 | 39.16770 | 34967 ft | 469 kts | 116° |
| 2026-05-05 07:04 | 41.18873 | 39.24591 | 34965 ft | 469 kts | 117° |
| 2026-05-05 07:05 | 41.16113 | 39.32433 | 34966 ft | 470 kts | 117° |
| 2026-05-05 07:05 | 41.13364 | 39.40269 | 34962 ft | 470 kts | 117° |
| 2026-05-05 07:06 | 41.10610 | 39.48114 | 34966 ft | 470 kts | 117° |
| 2026-05-05 07:06 | 41.07864 | 39.55927 | 34970 ft | 470 kts | 117° |
| 2026-05-05 07:07 | 41.05103 | 39.63761 | 34974 ft | 471 kts | 117° |
| 2026-05-05 07:07 | 41.02433 | 39.71789 | 34975 ft | 473 kts | 114° |
| 2026-05-05 07:08 | 41.00515 | 39.79985 | 34980 ft | 476 kts | 107° |
| 2026-05-05 07:08 | 40.99376 | 39.88620 | 34977 ft | 480 kts | 99° |
| 2026-05-05 07:09 | 40.99008 | 39.97468 | 34978 ft | 482 kts | 94° |
| 2026-05-05 07:09 | 40.98840 | 40.06278 | 34979 ft | 482 kts | 94° |
| 2026-05-05 07:10 | 40.98643 | 40.15167 | 34977 ft | 482 kts | 95° |
| 2026-05-05 07:10 | 40.98417 | 40.23969 | 34981 ft | 483 kts | 95° |
| 2026-05-05 07:11 | 40.98167 | 40.32879 | 34976 ft | 484 kts | 95° |
| 2026-05-05 07:11 | 40.97913 | 40.41773 | 34967 ft | 485 kts | 95° |
| 2026-05-05 07:12 | 40.97657 | 40.50625 | 34962 ft | 485 kts | 95° |
| 2026-05-05 07:12 | 40.97396 | 40.59510 | 34963 ft | 484 kts | 95° |
| 2026-05-05 07:13 | 40.97126 | 40.68494 | 34961 ft | 484 kts | 96° |
| 2026-05-05 07:13 | 40.96852 | 40.77361 | 34960 ft | 484 kts | 96° |
| 2026-05-05 07:14 | 40.96572 | 40.86212 | 34962 ft | 484 kts | 95° |
| 2026-05-05 07:14 | 40.96276 | 40.95131 | 34953 ft | 484 kts | 96° |
| 2026-05-05 07:15 | 40.95974 | 41.03963 | 34949 ft | 486 kts | 96° |
| 2026-05-05 07:15 | 40.95663 | 41.12906 | 34937 ft | 486 kts | 96° |
| 2026-05-05 07:16 | 40.95349 | 41.21823 | 34931 ft | 487 kts | 96° |
| 2026-05-05 07:16 | 40.95029 | 41.30758 | 34929 ft | 486 kts | 96° |
| 2026-05-05 07:17 | 40.94706 | 41.39618 | 34930 ft | 485 kts | 96° |
| 2026-05-05 07:17 | 40.94371 | 41.48557 | 34934 ft | 485 kts | 96° |
| 2026-05-05 07:18 | 40.94033 | 41.57417 | 34949 ft | 486 kts | 96° |
| 2026-05-05 07:18 | 40.93684 | 41.66391 | 34964 ft | 485 kts | 97° |
| 2026-05-05 07:19 | 40.93332 | 41.75275 | 34969 ft | 485 kts | 97° |
| 2026-05-05 07:19 | 40.92973 | 41.84131 | 34973 ft | 485 kts | 97° |
| 2026-05-05 07:20 | 40.92607 | 41.93030 | 34981 ft | 486 kts | 97° |
| 2026-05-05 07:20 | 40.92231 | 42.01949 | 34969 ft | 487 kts | 97° |
| 2026-05-05 07:21 | 40.91850 | 42.10841 | 34956 ft | 487 kts | 97° |
| 2026-05-05 07:21 | 40.91825 | 42.11412 | 34955 ft | 487 kts | 97° |
| 2026-05-05 07:22 | 40.91813 | 42.11708 | 34955 ft | 487 kts | 97° |
| 2026-05-05 07:23 | 40.91480 | 42.19369 | 34952 ft | 487 kts | 97° |
| 2026-05-05 07:24 | 40.91180 | 42.26161 | 34947 ft | 488 kts | 97° |
| 2026-05-05 07:25 | 40.90780 | 42.35083 | 34948 ft | 487 kts | 97° |
| 2026-05-05 07:25 | 40.90373 | 42.43998 | 34953 ft | 488 kts | 97° |
| 2026-05-05 07:26 | 40.89958 | 42.52937 | 34955 ft | 488 kts | 97° |
| 2026-05-05 07:26 | 40.89532 | 42.61953 | 34966 ft | 488 kts | 97° |
| 2026-05-05 07:27 | 40.89099 | 42.70988 | 34982 ft | 489 kts | 97° |
| 2026-05-05 07:27 | 40.88660 | 42.79988 | 34988 ft | 489 kts | 97° |
| 2026-05-05 07:28 | 40.88218 | 42.88900 | 34989 ft | 489 kts | 97° |
| 2026-05-05 07:28 | 40.87768 | 42.97852 | 34988 ft | 488 kts | 97° |
| 2026-05-05 07:29 | 40.87312 | 43.06799 | 34989 ft | 489 kts | 98° |
| 2026-05-05 07:29 | 40.86848 | 43.15702 | 34996 ft | 489 kts | 97° |
| 2026-05-05 07:30 | 40.86381 | 43.24636 | 34999 ft | 491 kts | 98° |
| 2026-05-05 07:30 | 40.85661 | 43.38115 | 35004 ft | 492 kts | 98° |
| 2026-05-05 07:31 | 40.85171 | 43.47089 | 35004 ft | 493 kts | 98° |
| 2026-05-05 07:31 | 40.84677 | 43.56084 | 35000 ft | 493 kts | 98° |
| 2026-05-05 07:32 | 40.84174 | 43.65102 | 35002 ft | 493 kts | 99° |
| 2026-05-05 07:32 | 40.83754 | 43.74106 | 35003 ft | 495 kts | 97° |
| 2026-05-05 07:33 | 40.83498 | 43.83152 | 35001 ft | 495 kts | 97° |
| 2026-05-05 07:33 | 40.83204 | 43.92202 | 35002 ft | 496 kts | 97° |
| 2026-05-05 07:34 | 40.82891 | 44.01267 | 35010 ft | 496 kts | 97° |
| 2026-05-05 07:34 | 40.82571 | 44.10391 | 35007 ft | 498 kts | 97° |
| 2026-05-05 07:35 | 40.82250 | 44.19440 | 34872 ft | 498 kts | 97° |
| 2026-05-05 07:35 | 40.81918 | 44.28623 | 34970 ft | 499 kts | 97° |
| 2026-05-05 07:36 | 40.81583 | 44.37738 | 34988 ft | 499 kts | 98° |
| 2026-05-05 07:36 | 40.81238 | 44.46813 | 34997 ft | 500 kts | 97° |
| 2026-05-05 07:37 | 40.80885 | 44.55981 | 34988 ft | 501 kts | 97° |
| 2026-05-05 07:37 | 40.80524 | 44.65169 | 34999 ft | 502 kts | 98° |
| 2026-05-05 07:38 | 40.80156 | 44.74372 | 34992 ft | 501 kts | 98° |
| 2026-05-05 07:38 | 40.79783 | 44.83495 | 34996 ft | 501 kts | 98° |
| 2026-05-05 07:39 | 40.79400 | 44.92648 | 35002 ft | 503 kts | 98° |
| 2026-05-05 07:39 | 40.79007 | 45.01877 | 34995 ft | 504 kts | 99° |
| 2026-05-05 07:40 | 40.78612 | 45.11038 | 34995 ft | 504 kts | 99° |
| 2026-05-05 07:40 | 40.78207 | 45.20219 | 34989 ft | 505 kts | 99° |
| 2026-05-05 07:41 | 40.77796 | 45.29476 | 34984 ft | 505 kts | 99° |
| 2026-05-05 07:41 | 40.77377 | 45.38705 | 34987 ft | 506 kts | 99° |
| 2026-05-05 07:42 | 40.76946 | 45.47958 | 34977 ft | 508 kts | 99° |
| 2026-05-05 07:42 | 40.76234 | 45.57149 | 34977 ft | 506 kts | 103° |
| 2026-05-05 07:43 | 40.75389 | 45.66346 | 34974 ft | 507 kts | 104° |
| 2026-05-05 07:43 | 40.74545 | 45.75548 | 34979 ft | 507 kts | 104° |
| 2026-05-05 07:44 | 40.73699 | 45.84731 | 34976 ft | 508 kts | 104° |
| 2026-05-05 07:44 | 40.72846 | 45.93985 | 34978 ft | 509 kts | 104° |
| 2026-05-05 07:45 | 40.71989 | 46.03183 | 34968 ft | 510 kts | 104° |
| 2026-05-05 07:45 | 40.71118 | 46.12456 | 34957 ft | 510 kts | 104° |
| 2026-05-05 07:46 | 40.70242 | 46.21680 | 34943 ft | 511 kts | 104° |
| 2026-05-05 07:46 | 40.69360 | 46.30925 | 34940 ft | 511 kts | 104° |
| 2026-05-05 07:47 | 40.68465 | 46.40226 | 34936 ft | 510 kts | 104° |
| 2026-05-05 07:47 | 40.67564 | 46.49475 | 34927 ft | 511 kts | 104° |
| 2026-05-05 07:48 | 40.66662 | 46.58673 | 34934 ft | 512 kts | 104° |
| 2026-05-05 07:48 | 40.65742 | 46.67993 | 34935 ft | 512 kts | 105° |
| 2026-05-05 07:49 | 40.64824 | 46.77217 | 34925 ft | 512 kts | 105° |
| 2026-05-05 07:49 | 40.63891 | 46.86521 | 34928 ft | 512 kts | 105° |
| 2026-05-05 07:50 | 40.62955 | 46.95759 | 34925 ft | 512 kts | 104° |
| 2026-05-05 07:50 | 40.62014 | 47.05029 | 34923 ft | 512 kts | 105° |
| 2026-05-05 07:51 | 40.61066 | 47.14246 | 34926 ft | 511 kts | 104° |
| 2026-05-05 07:51 | 40.60457 | 47.23568 | 34911 ft | 517 kts | 99° |
| 2026-05-05 07:52 | 40.60195 | 47.32985 | 34923 ft | 518 kts | 98° |
| 2026-05-05 07:52 | 40.59943 | 47.42429 | 34927 ft | 518 kts | 98° |
| 2026-05-05 07:53 | 40.59671 | 47.51887 | 34925 ft | 517 kts | 98° |
| 2026-05-05 07:53 | 40.59392 | 47.61240 | 34931 ft | 516 kts | 98° |
| 2026-05-05 07:54 | 40.59100 | 47.70688 | 34933 ft | 516 kts | 99° |
| 2026-05-05 07:54 | 40.58802 | 47.80131 | 34925 ft | 516 kts | 99° |
| 2026-05-05 07:55 | 40.58520 | 47.89555 | 34936 ft | 517 kts | 97° |
| 2026-05-05 07:55 | 40.58804 | 47.99049 | 34940 ft | 524 kts | 89° |
| 2026-05-05 07:56 | 40.59845 | 48.08506 | 34945 ft | 526 kts | 85° |
| 2026-05-05 07:56 | 40.61028 | 48.17973 | 34945 ft | 526 kts | 86° |
| 2026-05-05 07:57 | 40.62136 | 48.27459 | 34956 ft | 525 kts | 86° |
| 2026-05-05 07:57 | 40.63234 | 48.36947 | 34950 ft | 524 kts | 86° |
| 2026-05-05 07:58 | 40.64321 | 48.46398 | 34964 ft | 524 kts | 86° |
| 2026-05-05 07:58 | 40.65402 | 48.55826 | 34951 ft | 523 kts | 86° |
| 2026-05-05 07:59 | 40.66478 | 48.65278 | 34956 ft | 522 kts | 86° |
| 2026-05-05 07:59 | 40.67544 | 48.74704 | 34946 ft | 521 kts | 87° |
| 2026-05-05 08:00 | 40.68594 | 48.84085 | 34946 ft | 521 kts | 86° |
| 2026-05-05 08:00 | 40.69644 | 48.93517 | 34935 ft | 521 kts | 86° |
| 2026-05-05 08:01 | 40.70691 | 49.02945 | 34930 ft | 520 kts | 86° |
| 2026-05-05 08:01 | 40.71718 | 49.12323 | 34922 ft | 520 kts | 86° |
| 2026-05-05 08:02 | 40.72335 | 49.21706 | 34922 ft | 515 kts | 94° |
| 2026-05-05 08:02 | 40.72105 | 49.31027 | 34924 ft | 509 kts | 101° |
| 2026-05-05 08:03 | 40.71129 | 49.40221 | 34926 ft | 506 kts | 105° |
| 2026-05-05 08:03 | 40.70027 | 49.49318 | 34921 ft | 506 kts | 105° |
| 2026-05-05 08:04 | 40.68919 | 49.58471 | 34915 ft | 506 kts | 105° |
| 2026-05-05 08:04 | 40.67805 | 49.67593 | 34914 ft | 506 kts | 106° |
| 2026-05-05 08:05 | 40.66690 | 49.76720 | 34915 ft | 505 kts | 106° |
| 2026-05-05 08:05 | 40.65568 | 49.85832 | 34921 ft | 505 kts | 106° |
| 2026-05-05 08:06 | 40.64445 | 49.94912 | 34923 ft | 506 kts | 106° |
| 2026-05-05 08:06 | 40.63312 | 50.04012 | 34915 ft | 507 kts | 106° |
| 2026-05-05 08:07 | 40.62169 | 50.13147 | 34914 ft | 507 kts | 106° |
| 2026-05-05 08:07 | 40.61021 | 50.22254 | 34913 ft | 507 kts | 106° |
| 2026-05-05 08:08 | 40.59861 | 50.31398 | 34917 ft | 507 kts | 106° |
| 2026-05-05 08:08 | 40.58700 | 50.40491 | 34915 ft | 508 kts | 106° |
| 2026-05-05 08:09 | 40.57525 | 50.49633 | 34914 ft | 507 kts | 106° |
| 2026-05-05 08:09 | 40.56354 | 50.58696 | 34909 ft | 507 kts | 106° |
| 2026-05-05 08:10 | 40.55165 | 50.67835 | 34907 ft | 507 kts | 107° |
| 2026-05-05 08:10 | 40.53976 | 50.76936 | 34910 ft | 507 kts | 107° |
| 2026-05-05 08:11 | 40.52778 | 50.86046 | 34909 ft | 507 kts | 107° |
| 2026-05-05 08:11 | 40.51679 | 50.95183 | 34905 ft | 510 kts | 104° |
| 2026-05-05 08:12 | 40.50835 | 51.04384 | 34904 ft | 510 kts | 103° |
| 2026-05-05 08:12 | 40.50005 | 51.13626 | 34903 ft | 511 kts | 103° |
| 2026-05-05 08:13 | 40.49162 | 51.22837 | 34898 ft | 511 kts | 103° |
| 2026-05-05 08:13 | 40.48308 | 51.32082 | 34905 ft | 512 kts | 103° |
| 2026-05-05 08:14 | 40.47446 | 51.41333 | 34901 ft | 512 kts | 103° |
| 2026-05-05 08:14 | 40.46453 | 51.50567 | 34906 ft | 509 kts | 108° |
| 2026-05-05 08:15 | 40.44890 | 51.59564 | 34906 ft | 506 kts | 110° |
| 2026-05-05 08:15 | 40.43238 | 51.68460 | 34898 ft | 506 kts | 111° |
| 2026-05-05 08:16 | 40.41584 | 51.77405 | 34889 ft | 504 kts | 111° |
| 2026-05-05 08:16 | 40.39930 | 51.86342 | 34892 ft | 505 kts | 111° |
| 2026-05-05 08:17 | 40.38274 | 51.95268 | 34891 ft | 505 kts | 110° |
| 2026-05-05 08:17 | 40.36613 | 52.04186 | 34886 ft | 505 kts | 110° |
| 2026-05-05 08:18 | 40.34952 | 52.13071 | 34886 ft | 505 kts | 110° |
| 2026-05-05 08:18 | 40.33281 | 52.21961 | 34891 ft | 506 kts | 110° |
| 2026-05-05 08:19 | 40.31599 | 52.30880 | 34899 ft | 506 kts | 110° |
| 2026-05-05 08:19 | 40.30752 | 52.35357 | 35087 ft | 507 kts | 110° |
| 2026-05-05 08:19 | 40.29906 | 52.39821 | 35380 ft | 504 kts | 110° |
| 2026-05-05 08:20 | 40.29070 | 52.44221 | 35636 ft | 503 kts | 110° |
| 2026-05-05 08:20 | 40.28226 | 52.48663 | 35836 ft | 503 kts | 110° |
| 2026-05-05 08:20 | 40.27377 | 52.53117 | 36043 ft | 503 kts | 110° |
| 2026-05-05 08:20 | 40.26529 | 52.57537 | 36262 ft | 503 kts | 110° |
| 2026-05-05 08:21 | 40.25682 | 52.61936 | 36489 ft | 503 kts | 110° |
| 2026-05-05 08:21 | 40.24822 | 52.66385 | 36724 ft | 503 kts | 110° |
| 2026-05-05 08:21 | 40.23965 | 52.70811 | 36857 ft | 504 kts | 110° |
| 2026-05-05 08:21 | 40.23107 | 52.75246 | 36864 ft | 503 kts | 110° |
| 2026-05-05 08:22 | 40.21401 | 52.84053 | 36865 ft | 502 kts | 110° |
| 2026-05-05 08:22 | 40.19685 | 52.92870 | 36868 ft | 502 kts | 110° |
| 2026-05-05 08:23 | 40.17967 | 53.01669 | 36866 ft | 501 kts | 110° |
| 2026-05-05 08:23 | 40.16232 | 53.10521 | 36870 ft | 501 kts | 110° |
| 2026-05-05 08:24 | 40.14501 | 53.19313 | 36872 ft | 502 kts | 110° |
| 2026-05-05 08:24 | 40.12771 | 53.28061 | 36875 ft | 501 kts | 110° |
| 2026-05-05 08:25 | 40.11018 | 53.36886 | 36871 ft | 502 kts | 110° |
| 2026-05-05 08:25 | 40.09262 | 53.45688 | 36863 ft | 503 kts | 110° |
| 2026-05-05 08:26 | 40.07507 | 53.54458 | 36850 ft | 503 kts | 110° |
| 2026-05-05 08:26 | 40.05734 | 53.63272 | 36847 ft | 503 kts | 110° |
| 2026-05-05 08:27 | 40.03959 | 53.72061 | 36846 ft | 504 kts | 111° |
| 2026-05-05 08:27 | 40.02166 | 53.80899 | 36849 ft | 504 kts | 111° |
| 2026-05-05 08:28 | 40.00377 | 53.89679 | 36854 ft | 505 kts | 110° |
| 2026-05-05 08:28 | 39.98561 | 53.98559 | 36863 ft | 505 kts | 110° |
| 2026-05-05 08:29 | 39.96756 | 54.07344 | 36861 ft | 506 kts | 110° |
| 2026-05-05 08:30 | 39.94018 | 54.20616 | 36863 ft | 506 kts | 110° |
| 2026-05-05 08:30 | 39.92196 | 54.29409 | 36857 ft | 506 kts | 110° |
| 2026-05-05 08:31 | 39.90362 | 54.38235 | 36860 ft | 506 kts | 110° |
| 2026-05-05 08:31 | 39.88520 | 54.47015 | 36866 ft | 507 kts | 110° |
| 2026-05-05 08:32 | 39.86646 | 54.55839 | 36871 ft | 507 kts | 110° |
| 2026-05-05 08:32 | 39.84763 | 54.64696 | 36869 ft | 507 kts | 110° |
| 2026-05-05 08:33 | 39.82896 | 54.73463 | 36861 ft | 507 kts | 111° |
| 2026-05-05 08:33 | 39.81002 | 54.82290 | 36850 ft | 508 kts | 111° |
| 2026-05-05 08:34 | 39.79121 | 54.91061 | 36838 ft | 508 kts | 110° |
| 2026-05-05 08:34 | 39.77226 | 54.99893 | 36821 ft | 508 kts | 110° |
| 2026-05-05 08:35 | 39.75335 | 55.08689 | 36810 ft | 508 kts | 110° |
| 2026-05-05 08:35 | 39.73436 | 55.17504 | 36808 ft | 508 kts | 110° |
| 2026-05-05 08:36 | 39.71524 | 55.26304 | 36802 ft | 507 kts | 111° |
| 2026-05-05 08:36 | 39.69200 | 55.34841 | 36796 ft | 503 kts | 118° |
| 2026-05-05 08:37 | 39.66150 | 55.42912 | 36799 ft | 497 kts | 125° |
| 2026-05-05 08:37 | 39.62618 | 55.50589 | 36798 ft | 496 kts | 126° |
| 2026-05-05 08:38 | 39.59058 | 55.58260 | 36792 ft | 496 kts | 126° |
| 2026-05-05 08:38 | 39.55529 | 55.65892 | 36794 ft | 497 kts | 127° |
| 2026-05-05 08:39 | 39.51984 | 55.73554 | 36789 ft | 497 kts | 126° |
| 2026-05-05 08:39 | 39.48451 | 55.81169 | 36789 ft | 497 kts | 126° |
| 2026-05-05 08:40 | 39.44928 | 55.88855 | 36788 ft | 498 kts | 126° |
| 2026-05-05 08:40 | 39.41428 | 55.96522 | 36781 ft | 497 kts | 126° |
| 2026-05-05 08:41 | 39.37912 | 56.04211 | 36777 ft | 497 kts | 126° |
| 2026-05-05 08:41 | 39.34400 | 56.11867 | 36774 ft | 498 kts | 126° |
| 2026-05-05 08:42 | 39.30883 | 56.19518 | 36773 ft | 498 kts | 126° |
| 2026-05-05 08:42 | 39.27347 | 56.27190 | 36775 ft | 497 kts | 126° |
| 2026-05-05 08:43 | 39.23823 | 56.34818 | 36771 ft | 497 kts | 125° |
| 2026-05-05 08:43 | 39.20287 | 56.42452 | 36778 ft | 498 kts | 125° |
| 2026-05-05 08:44 | 39.16730 | 56.50114 | 36778 ft | 498 kts | 125° |
| 2026-05-05 08:44 | 39.13195 | 56.57714 | 36791 ft | 497 kts | 125° |
| 2026-05-05 08:44 | 39.11419 | 56.61525 | 37020 ft | 498 kts | 125° |
| 2026-05-05 08:45 | 39.09628 | 56.65364 | 36878 ft | 496 kts | 126° |
| 2026-05-05 08:45 | 39.06092 | 56.72928 | 36806 ft | 496 kts | 126° |
| 2026-05-05 08:46 | 39.02534 | 56.80518 | 36794 ft | 496 kts | 126° |
| 2026-05-05 08:46 | 38.98978 | 56.88089 | 36796 ft | 495 kts | 126° |
| 2026-05-05 08:47 | 38.95442 | 56.95598 | 36794 ft | 496 kts | 126° |
| 2026-05-05 08:47 | 38.91857 | 57.03193 | 36796 ft | 497 kts | 126° |
| 2026-05-05 08:48 | 38.88294 | 57.10725 | 36794 ft | 497 kts | 126° |
| 2026-05-05 08:48 | 38.84695 | 57.18315 | 36794 ft | 498 kts | 126° |
| 2026-05-05 08:49 | 38.81100 | 57.25881 | 36793 ft | 498 kts | 125° |
| 2026-05-05 08:49 | 38.77510 | 57.33420 | 36793 ft | 498 kts | 125° |
| 2026-05-05 08:50 | 38.73905 | 57.40974 | 36795 ft | 498 kts | 125° |
| 2026-05-05 08:50 | 38.70308 | 57.48499 | 36798 ft | 497 kts | 125° |
| 2026-05-05 08:51 | 38.66704 | 57.56025 | 36811 ft | 498 kts | 125° |
| 2026-05-05 08:51 | 38.63114 | 57.63528 | 36807 ft | 499 kts | 124° |
| 2026-05-05 08:52 | 38.59915 | 57.71413 | 36813 ft | 503 kts | 118° |
| 2026-05-05 08:52 | 38.57073 | 57.79560 | 36815 ft | 504 kts | 117° |
| 2026-05-05 08:52 | 38.55645 | 57.83678 | 36557 ft | 504 kts | 117° |
| 2026-05-05 08:53 | 38.54230 | 57.87744 | 36726 ft | 505 kts | 117° |
| 2026-05-05 08:53 | 38.51358 | 57.95950 | 36798 ft | 508 kts | 117° |
| 2026-05-05 08:54 | 38.48476 | 58.04154 | 36808 ft | 508 kts | 117° |
| 2026-05-05 08:54 | 38.45590 | 58.12347 | 36810 ft | 508 kts | 117° |
| 2026-05-05 08:55 | 38.42703 | 58.20522 | 36815 ft | 508 kts | 117° |
| 2026-05-05 08:55 | 38.39691 | 58.28641 | 36824 ft | 506 kts | 121° |
| 2026-05-05 08:56 | 38.36156 | 58.36362 | 36820 ft | 505 kts | 124° |
| 2026-05-05 08:56 | 38.32550 | 58.43966 | 36827 ft | 506 kts | 124° |
| 2026-05-05 08:57 | 38.28915 | 58.51642 | 36826 ft | 506 kts | 124° |
| 2026-05-05 08:57 | 38.25304 | 58.59273 | 36824 ft | 507 kts | 124° |
| 2026-05-05 08:58 | 38.21679 | 58.66923 | 36824 ft | 507 kts | 124° |
| 2026-05-05 08:58 | 38.18054 | 58.74553 | 36818 ft | 506 kts | 124° |
| 2026-05-05 08:59 | 38.14406 | 58.82213 | 36817 ft | 507 kts | 124° |
| 2026-05-05 08:59 | 38.10773 | 58.89824 | 36809 ft | 508 kts | 124° |
| 2026-05-05 09:00 | 38.07190 | 58.97317 | 36813 ft | 508 kts | 124° |
| 2026-05-05 09:00 | 38.03543 | 59.04927 | 36809 ft | 508 kts | 124° |
| 2026-05-05 09:01 | 37.99883 | 59.12550 | 36811 ft | 508 kts | 124° |
| 2026-05-05 09:01 | 37.96216 | 59.20175 | 36822 ft | 507 kts | 124° |
| 2026-05-05 09:02 | 37.92537 | 59.27806 | 36816 ft | 508 kts | 124° |
| 2026-05-05 09:02 | 37.88771 | 59.35350 | 36834 ft | 506 kts | 128° |
| 2026-05-05 09:03 | 37.84584 | 59.42435 | 36839 ft | 505 kts | 130° |
| 2026-05-05 09:03 | 37.80336 | 59.49450 | 36851 ft | 505 kts | 130° |
| 2026-05-05 09:04 | 37.76060 | 59.56522 | 36859 ft | 506 kts | 130° |
| 2026-05-05 09:04 | 37.71815 | 59.63547 | 36854 ft | 506 kts | 130° |
| 2026-05-05 09:05 | 37.67542 | 59.70605 | 36860 ft | 506 kts | 131° |
| 2026-05-05 09:05 | 37.63272 | 59.77644 | 36863 ft | 507 kts | 131° |
| 2026-05-05 09:06 | 37.58998 | 59.84673 | 36865 ft | 506 kts | 130° |
| 2026-05-05 09:06 | 37.54716 | 59.91703 | 36862 ft | 507 kts | 130° |
| 2026-05-05 09:07 | 37.50439 | 59.98710 | 36860 ft | 506 kts | 130° |
| 2026-05-05 09:07 | 37.46164 | 60.05701 | 36865 ft | 506 kts | 130° |
| 2026-05-05 09:08 | 37.41872 | 60.12699 | 36862 ft | 507 kts | 130° |
| 2026-05-05 09:08 | 37.37561 | 60.19719 | 36865 ft | 508 kts | 130° |
| 2026-05-05 09:09 | 37.33262 | 60.26703 | 36859 ft | 508 kts | 130° |
| 2026-05-05 09:09 | 37.28941 | 60.33712 | 36854 ft | 508 kts | 130° |
| 2026-05-05 09:10 | 37.24618 | 60.40704 | 36853 ft | 508 kts | 130° |
| 2026-05-05 09:10 | 37.20291 | 60.47692 | 36853 ft | 508 kts | 130° |
| 2026-05-05 09:11 | 37.15966 | 60.54662 | 36852 ft | 509 kts | 130° |
| 2026-05-05 09:11 | 37.11632 | 60.61632 | 36854 ft | 509 kts | 130° |
| 2026-05-05 09:12 | 37.07291 | 60.68607 | 36851 ft | 509 kts | 131° |
| 2026-05-05 09:12 | 37.02956 | 60.75562 | 36854 ft | 509 kts | 131° |
| 2026-05-05 09:13 | 36.98605 | 60.82519 | 36841 ft | 508 kts | 130° |
| 2026-05-05 09:13 | 36.96505 | 60.86036 | 37020 ft | 510 kts | 128° |
| 2026-05-05 09:13 | 36.94439 | 60.89677 | 36919 ft | 509 kts | 127° |
| 2026-05-05 09:14 | 36.90399 | 60.96871 | 36872 ft | 508 kts | 127° |
| 2026-05-05 09:14 | 36.86354 | 61.04063 | 36878 ft | 509 kts | 127° |
| 2026-05-05 09:15 | 36.82304 | 61.11250 | 36883 ft | 508 kts | 127° |
| 2026-05-05 09:15 | 36.78219 | 61.18479 | 36878 ft | 508 kts | 127° |
| 2026-05-05 09:16 | 36.74166 | 61.25638 | 36878 ft | 508 kts | 127° |
| 2026-05-05 09:16 | 36.70099 | 61.32812 | 36896 ft | 509 kts | 127° |
| 2026-05-05 09:17 | 36.66024 | 61.39987 | 36888 ft | 509 kts | 127° |
| 2026-05-05 09:17 | 36.61928 | 61.47168 | 36899 ft | 509 kts | 127° |
| 2026-05-05 09:18 | 36.57782 | 61.54234 | 36895 ft | 509 kts | 128° |
| 2026-05-05 09:18 | 36.53608 | 61.61303 | 36906 ft | 510 kts | 128° |
| 2026-05-05 09:19 | 36.49430 | 61.68397 | 36919 ft | 510 kts | 129° |
| 2026-05-05 09:19 | 36.45251 | 61.75484 | 36934 ft | 510 kts | 128° |
| 2026-05-05 09:20 | 36.41070 | 61.82569 | 36946 ft | 510 kts | 128° |
| 2026-05-05 09:20 | 36.36888 | 61.89637 | 36942 ft | 509 kts | 128° |
| 2026-05-05 09:21 | 36.32688 | 61.96720 | 36950 ft | 510 kts | 128° |
| 2026-05-05 09:21 | 36.28499 | 62.03772 | 36968 ft | 511 kts | 128° |
| 2026-05-05 09:22 | 36.24294 | 62.10843 | 36962 ft | 511 kts | 129° |
| 2026-05-05 09:22 | 36.20063 | 62.17934 | 36968 ft | 511 kts | 129° |
| 2026-05-05 09:23 | 36.15852 | 62.24977 | 36976 ft | 511 kts | 128° |
| 2026-05-05 09:23 | 36.11628 | 62.32028 | 36981 ft | 512 kts | 129° |
| 2026-05-05 09:24 | 36.07396 | 62.39074 | 36973 ft | 513 kts | 128° |
| 2026-05-05 09:24 | 36.03154 | 62.46126 | 36974 ft | 513 kts | 128° |
| 2026-05-05 09:25 | 35.98896 | 62.53203 | 36950 ft | 513 kts | 128° |
| 2026-05-05 09:25 | 35.94659 | 62.60219 | 36963 ft | 514 kts | 129° |
| 2026-05-05 09:26 | 35.90389 | 62.67271 | 36949 ft | 514 kts | 129° |
| 2026-05-05 09:26 | 35.86111 | 62.74323 | 36974 ft | 514 kts | 129° |
| 2026-05-05 09:27 | 35.81821 | 62.81381 | 36963 ft | 515 kts | 129° |
| 2026-05-05 09:27 | 35.77556 | 62.88390 | 36991 ft | 515 kts | 129° |
| 2026-05-05 09:28 | 35.73239 | 62.95473 | 36974 ft | 516 kts | 129° |
| 2026-05-05 09:28 | 35.68962 | 63.02475 | 36974 ft | 516 kts | 129° |
| 2026-05-05 09:29 | 35.64649 | 63.09537 | 36971 ft | 517 kts | 129° |
| 2026-05-05 09:29 | 35.60318 | 63.16608 | 36996 ft | 518 kts | 129° |
| 2026-05-05 09:30 | 35.55987 | 63.23606 | 37014 ft | 518 kts | 130° |
| 2026-05-05 09:30 | 35.51590 | 63.30598 | 37033 ft | 519 kts | 130° |
| 2026-05-05 09:31 | 35.47197 | 63.37586 | 37041 ft | 519 kts | 130° |
| 2026-05-05 09:31 | 35.42801 | 63.44583 | 37064 ft | 520 kts | 129° |
| 2026-05-05 09:32 | 35.38378 | 63.51621 | 37067 ft | 521 kts | 130° |
| 2026-05-05 09:32 | 35.33967 | 63.58636 | 37103 ft | 522 kts | 130° |
| 2026-05-05 09:33 | 35.29510 | 63.65690 | 37117 ft | 523 kts | 130° |
| 2026-05-05 09:33 | 35.25067 | 63.72709 | 37118 ft | 522 kts | 130° |
| 2026-05-05 09:34 | 35.20637 | 63.79718 | 37128 ft | 523 kts | 130° |
| 2026-05-05 09:34 | 35.16193 | 63.86744 | 37184 ft | 524 kts | 130° |
| 2026-05-05 09:35 | 35.11765 | 63.93733 | 37209 ft | 524 kts | 130° |
| 2026-05-05 09:35 | 35.05041 | 64.04327 | 37226 ft | 527 kts | 130° |
| 2026-05-05 09:36 | 35.00579 | 64.11344 | 37238 ft | 528 kts | 130° |
| 2026-05-05 09:36 | 34.96084 | 64.18397 | 37266 ft | 528 kts | 130° |
| 2026-05-05 09:37 | 34.91591 | 64.25428 | 37314 ft | 528 kts | 130° |
| 2026-05-05 09:37 | 34.87058 | 64.32514 | 37339 ft | 529 kts | 130° |
| 2026-05-05 09:38 | 34.82545 | 64.39558 | 37364 ft | 529 kts | 130° |
| 2026-05-05 09:38 | 34.78011 | 64.46617 | 37393 ft | 530 kts | 130° |
| 2026-05-05 09:39 | 34.73491 | 64.53631 | 37403 ft | 530 kts | 130° |
| 2026-05-05 09:39 | 34.68931 | 64.60698 | 37445 ft | 531 kts | 130° |
| 2026-05-05 09:40 | 34.64376 | 64.67754 | 37449 ft | 531 kts | 130° |
| 2026-05-05 09:40 | 34.59821 | 64.74794 | 37456 ft | 531 kts | 130° |
| 2026-05-05 09:41 | 34.55278 | 64.81799 | 37478 ft | 532 kts | 130° |
| 2026-05-05 09:41 | 34.50695 | 64.88865 | 37487 ft | 531 kts | 130° |
| 2026-05-05 09:42 | 34.46132 | 64.95839 | 37486 ft | 532 kts | 130° |
| 2026-05-05 09:42 | 34.41522 | 65.02856 | 37497 ft | 533 kts | 130° |
| 2026-05-05 09:43 | 34.36919 | 65.09858 | 37508 ft | 533 kts | 130° |
| 2026-05-05 09:43 | 34.32312 | 65.16868 | 37511 ft | 534 kts | 130° |
| 2026-05-05 09:44 | 34.27681 | 65.23907 | 37521 ft | 534 kts | 130° |
| 2026-05-05 09:44 | 34.23062 | 65.30911 | 37517 ft | 535 kts | 130° |
| 2026-05-05 09:45 | 34.18440 | 65.37907 | 37526 ft | 536 kts | 131° |
| 2026-05-05 09:45 | 34.13805 | 65.44916 | 37524 ft | 536 kts | 130° |
| 2026-05-05 09:46 | 34.09152 | 65.51945 | 37528 ft | 535 kts | 131° |
| 2026-05-05 09:46 | 34.04524 | 65.58887 | 37527 ft | 536 kts | 130° |
| 2026-05-05 09:47 | 33.99845 | 65.65900 | 37518 ft | 536 kts | 131° |
| 2026-05-05 09:47 | 33.95168 | 65.72917 | 37523 ft | 537 kts | 131° |
| 2026-05-05 09:48 | 33.90505 | 65.79903 | 37523 ft | 537 kts | 131° |
| 2026-05-05 09:48 | 33.85834 | 65.86888 | 37517 ft | 537 kts | 131° |
| 2026-05-05 09:49 | 33.81172 | 65.93859 | 37517 ft | 537 kts | 131° |
| 2026-05-05 09:49 | 33.76483 | 66.00846 | 37499 ft | 537 kts | 131° |
| 2026-05-05 09:50 | 33.71796 | 66.07821 | 37503 ft | 537 kts | 131° |
| 2026-05-05 09:50 | 33.67100 | 66.14797 | 37481 ft | 538 kts | 131° |
| 2026-05-05 09:51 | 33.62420 | 66.21734 | 37471 ft | 537 kts | 131° |
| 2026-05-05 09:51 | 33.57695 | 66.28732 | 37459 ft | 539 kts | 131° |
| 2026-05-05 09:52 | 33.53003 | 66.35679 | 37446 ft | 539 kts | 131° |
| 2026-05-05 09:52 | 33.48294 | 66.42628 | 37449 ft | 539 kts | 131° |
| 2026-05-05 09:53 | 33.43527 | 66.49609 | 37464 ft | 541 kts | 131° |
| 2026-05-05 09:53 | 33.38789 | 66.56504 | 37494 ft | 541 kts | 131° |
| 2026-05-05 09:54 | 33.34007 | 66.63457 | 37508 ft | 542 kts | 131° |
| 2026-05-05 09:54 | 33.29197 | 66.70454 | 37520 ft | 541 kts | 131° |
| 2026-05-05 09:55 | 33.24412 | 66.77400 | 37531 ft | 543 kts | 131° |
| 2026-05-05 09:55 | 33.19630 | 66.84338 | 37543 ft | 543 kts | 131° |
| 2026-05-05 09:56 | 33.14832 | 66.91290 | 37549 ft | 545 kts | 131° |
| 2026-05-05 09:56 | 33.10021 | 66.98243 | 37552 ft | 545 kts | 131° |
| 2026-05-05 09:57 | 33.05203 | 67.05196 | 37556 ft | 546 kts | 131° |
| 2026-05-05 09:57 | 33.00364 | 67.12158 | 37548 ft | 545 kts | 132° |
| 2026-05-05 09:58 | 32.95542 | 67.19082 | 37536 ft | 546 kts | 131° |
| 2026-05-05 09:58 | 32.90725 | 67.26001 | 37516 ft | 544 kts | 131° |
| 2026-05-05 09:59 | 32.85860 | 67.32972 | 37478 ft | 546 kts | 132° |
| 2026-05-05 09:59 | 32.81029 | 67.39885 | 37455 ft | 546 kts | 132° |
| 2026-05-05 10:00 | 32.76186 | 67.46757 | 37434 ft | 545 kts | 133° |
| 2026-05-05 10:00 | 32.71183 | 67.53468 | 37416 ft | 545 kts | 134° |
| 2026-05-05 10:01 | 32.66125 | 67.60197 | 37402 ft | 546 kts | 134° |
| 2026-05-05 10:01 | 32.61083 | 67.66939 | 37386 ft | 546 kts | 134° |
| 2026-05-05 10:02 | 32.56068 | 67.73677 | 37384 ft | 545 kts | 134° |
| 2026-05-05 10:02 | 32.51047 | 67.80394 | 37372 ft | 545 kts | 134° |
| 2026-05-05 10:03 | 32.46207 | 67.87205 | 37369 ft | 546 kts | 132° |
| 2026-05-05 10:03 | 32.41356 | 67.94159 | 37362 ft | 547 kts | 131° |
| 2026-05-05 10:04 | 32.37331 | 67.99936 | 37368 ft | 547 kts | 131° |
| 2026-05-05 10:04 | 32.31726 | 68.07967 | 37376 ft | 547 kts | 131° |
| 2026-05-05 10:05 | 32.26864 | 68.14919 | 37392 ft | 546 kts | 131° |
| 2026-05-05 10:05 | 32.22026 | 68.21818 | 37394 ft | 547 kts | 131° |
| 2026-05-05 10:06 | 32.17180 | 68.28713 | 37399 ft | 548 kts | 131° |
| 2026-05-05 10:06 | 32.12326 | 68.35608 | 37402 ft | 549 kts | 131° |
| 2026-05-05 10:07 | 32.07459 | 68.42515 | 37387 ft | 548 kts | 131° |
| 2026-05-05 10:07 | 32.02603 | 68.49391 | 37374 ft | 547 kts | 131° |
| 2026-05-05 10:08 | 31.97726 | 68.56286 | 37354 ft | 547 kts | 131° |
| 2026-05-05 10:08 | 31.92895 | 68.63097 | 37337 ft | 547 kts | 131° |
| 2026-05-05 10:09 | 31.87989 | 68.70007 | 37318 ft | 547 kts | 131° |
| 2026-05-05 10:09 | 31.83917 | 68.75740 | 37313 ft | 547 kts | 132° |
| 2026-05-05 10:10 | 31.78239 | 68.83709 | 37307 ft | 548 kts | 131° |
| 2026-05-05 10:10 | 31.73344 | 68.90578 | 37296 ft | 548 kts | 131° |
| 2026-05-05 10:11 | 31.68450 | 68.97435 | 37290 ft | 548 kts | 131° |
| 2026-05-05 10:11 | 31.63624 | 69.04318 | 37285 ft | 549 kts | 129° |
| 2026-05-05 10:12 | 31.58936 | 69.11322 | 37269 ft | 550 kts | 129° |
| 2026-05-05 10:12 | 31.54982 | 69.17223 | 37266 ft | 549 kts | 129° |
| 2026-05-05 10:13 | 31.50285 | 69.24204 | 37251 ft | 549 kts | 129° |
| 2026-05-05 10:13 | 31.44772 | 69.32373 | 37229 ft | 549 kts | 129° |
| 2026-05-05 10:14 | 31.40050 | 69.39349 | 37217 ft | 549 kts | 129° |
| 2026-05-05 10:14 | 31.35006 | 69.46042 | 37214 ft | 546 kts | 137° |
| 2026-05-05 10:15 | 31.29335 | 69.51936 | 37226 ft | 544 kts | 144° |
| 2026-05-05 10:15 | 31.23443 | 69.57457 | 37237 ft | 545 kts | 144° |
| 2026-05-05 10:16 | 31.18519 | 69.62076 | 37235 ft | 546 kts | 144° |
| 2026-05-05 10:16 | 31.12638 | 69.67628 | 37224 ft | 544 kts | 144° |
| 2026-05-05 10:17 | 31.06740 | 69.73190 | 37223 ft | 546 kts | 144° |
| 2026-05-05 10:17 | 30.99880 | 69.79655 | 37230 ft | 546 kts | 144° |
| 2026-05-05 10:18 | 30.94971 | 69.84277 | 37226 ft | 546 kts | 144° |
| 2026-05-05 10:18 | 30.89045 | 69.89844 | 37216 ft | 546 kts | 144° |
| 2026-05-05 10:19 | 30.82160 | 69.96302 | 37218 ft | 545 kts | 144° |
| 2026-05-05 10:19 | 30.76264 | 70.01823 | 37219 ft | 545 kts | 144° |
| 2026-05-05 10:20 | 30.70360 | 70.07343 | 37196 ft | 546 kts | 144° |
| 2026-05-05 10:20 | 30.65453 | 70.11919 | 37162 ft | 545 kts | 144° |
| 2026-05-05 10:21 | 30.59547 | 70.17426 | 37112 ft | 545 kts | 144° |
| 2026-05-05 10:21 | 30.52692 | 70.23811 | 37058 ft | 543 kts | 144° |
| 2026-05-05 10:22 | 30.47763 | 70.28387 | 37036 ft | 543 kts | 144° |
| 2026-05-05 10:22 | 30.41858 | 70.33868 | 37014 ft | 543 kts | 144° |
| 2026-05-05 10:23 | 30.35993 | 70.39308 | 36993 ft | 543 kts | 144° |
| 2026-05-05 10:23 | 30.29115 | 70.45677 | 36950 ft | 543 kts | 143° |
| 2026-05-05 10:24 | 30.24209 | 70.50218 | 36925 ft | 543 kts | 144° |
| 2026-05-05 10:24 | 30.18349 | 70.55666 | 36889 ft | 543 kts | 143° |
| 2026-05-05 10:25 | 30.12500 | 70.61194 | 36878 ft | 543 kts | 143° |
| 2026-05-05 10:25 | 30.06680 | 70.66703 | 36867 ft | 542 kts | 143° |
| 2026-05-05 10:26 | 30.00861 | 70.72198 | 36856 ft | 542 kts | 143° |
| 2026-05-05 10:26 | 29.95015 | 70.77704 | 36841 ft | 542 kts | 143° |
| 2026-05-05 10:27 | 29.89185 | 70.83192 | 36838 ft | 542 kts | 143° |
| 2026-05-05 10:27 | 29.83330 | 70.88695 | 36838 ft | 542 kts | 143° |
| 2026-05-05 10:28 | 29.77509 | 70.94162 | 36830 ft | 543 kts | 143° |
| 2026-05-05 10:28 | 29.71687 | 70.99627 | 36824 ft | 543 kts | 143° |
| 2026-05-05 10:29 | 29.65894 | 71.05193 | 36829 ft | 544 kts | 141° |
| 2026-05-05 10:29 | 29.60211 | 71.10978 | 36828 ft | 543 kts | 141° |
| 2026-05-05 10:30 | 29.54619 | 71.16698 | 36820 ft | 542 kts | 140° |
| 2026-05-05 10:30 | 29.48963 | 71.22469 | 36812 ft | 542 kts | 140° |
| 2026-05-05 10:31 | 29.43330 | 71.28207 | 36809 ft | 542 kts | 141° |
| 2026-05-05 10:31 | 29.37724 | 71.33912 | 36808 ft | 542 kts | 140° |
| 2026-05-05 10:32 | 29.32071 | 71.39662 | 36805 ft | 542 kts | 141° |
| 2026-05-05 10:32 | 29.26443 | 71.45370 | 36807 ft | 541 kts | 140° |
| 2026-05-05 10:33 | 29.20820 | 71.51096 | 36809 ft | 541 kts | 140° |
| 2026-05-05 10:33 | 29.15221 | 71.56809 | 36805 ft | 541 kts | 140° |
| 2026-05-05 10:34 | 29.09596 | 71.62543 | 36806 ft | 542 kts | 140° |
| 2026-05-05 10:34 | 29.03992 | 71.68251 | 36794 ft | 541 kts | 141° |
| 2026-05-05 10:35 | 28.98373 | 71.73964 | 36804 ft | 541 kts | 141° |
| 2026-05-05 10:35 | 28.92745 | 71.79675 | 36808 ft | 541 kts | 141° |
| 2026-05-05 10:36 | 28.87144 | 71.85352 | 36811 ft | 541 kts | 141° |
| 2026-05-05 10:36 | 28.81517 | 71.91051 | 36815 ft | 541 kts | 141° |
| 2026-05-05 10:37 | 28.75904 | 71.96725 | 36814 ft | 541 kts | 141° |
| 2026-05-05 10:37 | 28.70267 | 72.02417 | 36816 ft | 541 kts | 141° |
| 2026-05-05 10:38 | 28.64684 | 72.08053 | 36816 ft | 540 kts | 141° |
| 2026-05-05 10:38 | 28.59043 | 72.13739 | 36815 ft | 540 kts | 141° |
| 2026-05-05 10:39 | 28.53583 | 72.19519 | 36810 ft | 542 kts | 134° |
| 2026-05-05 10:39 | 28.49209 | 72.26492 | 36808 ft | 543 kts | 117° |
| 2026-05-05 10:40 | 28.46467 | 72.34424 | 36804 ft | 540 kts | 102° |
| 2026-05-05 10:40 | 28.45118 | 72.42763 | 36802 ft | 538 kts | 96° |
| 2026-05-05 10:41 | 28.43961 | 72.51128 | 36802 ft | 538 kts | 96° |
| 2026-05-05 10:41 | 28.42745 | 72.59476 | 36807 ft | 537 kts | 96° |
| 2026-05-05 10:42 | 28.40851 | 72.71991 | 36805 ft | 537 kts | 97° |
| 2026-05-05 10:43 | 28.39579 | 72.80283 | 36810 ft | 537 kts | 97° |
| 2026-05-05 10:43 | 28.38291 | 72.88650 | 36814 ft | 537 kts | 97° |
| 2026-05-05 10:44 | 28.37004 | 72.96982 | 36817 ft | 537 kts | 97° |
| 2026-05-05 10:44 | 28.35716 | 73.05294 | 36821 ft | 536 kts | 97° |
| 2026-05-05 10:45 | 28.34423 | 73.13614 | 36818 ft | 537 kts | 97° |
| 2026-05-05 10:45 | 28.33124 | 73.21905 | 36816 ft | 536 kts | 97° |
| 2026-05-05 10:46 | 28.31819 | 73.30215 | 36815 ft | 536 kts | 97° |
| 2026-05-05 10:46 | 28.30516 | 73.38495 | 36817 ft | 536 kts | 97° |
| 2026-05-05 10:47 | 28.29201 | 73.46796 | 36821 ft | 535 kts | 97° |
| 2026-05-05 10:47 | 28.27888 | 73.55075 | 36823 ft | 536 kts | 97° |
| 2026-05-05 10:48 | 28.26564 | 73.63371 | 36828 ft | 535 kts | 97° |
| 2026-05-05 10:48 | 28.25235 | 73.71699 | 36832 ft | 536 kts | 98° |
| 2026-05-05 10:49 | 28.23904 | 73.79984 | 36837 ft | 536 kts | 98° |
| 2026-05-05 10:49 | 28.22568 | 73.88287 | 36844 ft | 536 kts | 98° |
| 2026-05-05 10:50 | 28.21232 | 73.96574 | 36851 ft | 536 kts | 98° |
| 2026-05-05 10:50 | 28.19936 | 74.04840 | 36856 ft | 535 kts | 96° |
| 2026-05-05 10:51 | 28.19265 | 74.13156 | 36856 ft | 531 kts | 88° |
| 2026-05-05 10:51 | 28.19484 | 74.21493 | 36853 ft | 528 kts | 82° |
| 2026-05-05 10:52 | 28.20094 | 74.29723 | 36851 ft | 528 kts | 81° |
| 2026-05-05 10:52 | 28.20707 | 74.38020 | 36853 ft | 529 kts | 81° |
| 2026-05-05 10:53 | 28.21291 | 74.46280 | 36852 ft | 529 kts | 81° |
| 2026-05-05 10:53 | 28.21863 | 74.54570 | 36852 ft | 528 kts | 82° |
| 2026-05-05 10:54 | 28.22424 | 74.62829 | 36848 ft | 528 kts | 81° |
| 2026-05-05 10:54 | 28.22980 | 74.71084 | 36846 ft | 528 kts | 82° |
| 2026-05-05 10:55 | 28.23532 | 74.79364 | 36847 ft | 528 kts | 82° |
| 2026-05-05 10:55 | 28.24080 | 74.87630 | 36850 ft | 529 kts | 82° |
| 2026-05-05 10:56 | 28.24625 | 74.95947 | 36848 ft | 528 kts | 82° |
| 2026-05-05 10:56 | 28.25161 | 75.04188 | 36850 ft | 528 kts | 82° |
| 2026-05-05 10:57 | 28.25693 | 75.12463 | 36847 ft | 528 kts | 82° |
| 2026-05-05 10:57 | 28.26225 | 75.20789 | 36846 ft | 529 kts | 82° |
| 2026-05-05 10:58 | 28.26744 | 75.29041 | 36847 ft | 528 kts | 82° |
| 2026-05-05 10:58 | 28.27264 | 75.37338 | 36848 ft | 529 kts | 82° |
| 2026-05-05 10:59 | 28.27779 | 75.45649 | 36851 ft | 529 kts | 82° |
| 2026-05-05 10:59 | 28.28287 | 75.53938 | 36854 ft | 528 kts | 82° |
| 2026-05-05 11:00 | 28.28790 | 75.62219 | 36855 ft | 529 kts | 82° |
| 2026-05-05 11:00 | 28.29289 | 75.70510 | 36849 ft | 529 kts | 83° |
| 2026-05-05 11:01 | 28.29782 | 75.78825 | 36847 ft | 529 kts | 83° |
| 2026-05-05 11:01 | 28.30273 | 75.87148 | 36848 ft | 529 kts | 83° |
| 2026-05-05 11:02 | 28.30756 | 75.95438 | 36849 ft | 528 kts | 83° |
| 2026-05-05 11:02 | 28.31235 | 76.03725 | 36846 ft | 529 kts | 83° |
| 2026-05-05 11:03 | 28.31711 | 76.12035 | 36839 ft | 529 kts | 83° |
| 2026-05-05 11:03 | 28.32181 | 76.20327 | 36837 ft | 529 kts | 83° |
| 2026-05-05 11:04 | 28.32646 | 76.28614 | 36836 ft | 529 kts | 83° |
| 2026-05-05 11:04 | 28.33106 | 76.36899 | 36838 ft | 529 kts | 83° |
| 2026-05-05 11:05 | 28.33569 | 76.45239 | 36840 ft | 529 kts | 83° |
| 2026-05-05 11:05 | 28.34093 | 76.54930 | 36840 ft | 529 kts | 84° |
| 2026-05-05 11:06 | 28.34033 | 76.61900 | 36839 ft | 532 kts | 91° |
| 2026-05-05 11:06 | 28.32979 | 76.70182 | 36837 ft | 534 kts | 101° |
| 2026-05-05 11:07 | 28.30840 | 76.78268 | 36838 ft | 535 kts | 110° |
| 2026-05-05 11:07 | 28.28163 | 76.86099 | 36834 ft | 535 kts | 111° |
| 2026-05-05 11:08 | 28.25465 | 76.93941 | 36836 ft | 534 kts | 111° |
| 2026-05-05 11:08 | 28.22803 | 77.01760 | 36840 ft | 535 kts | 111° |
| 2026-05-05 11:09 | 28.20132 | 77.09631 | 36840 ft | 534 kts | 111° |
| 2026-05-05 11:09 | 28.17485 | 77.17426 | 36838 ft | 534 kts | 111° |
| 2026-05-05 11:10 | 28.14806 | 77.25291 | 36828 ft | 534 kts | 111° |
| 2026-05-05 11:10 | 28.12145 | 77.33083 | 36832 ft | 534 kts | 111° |
| 2026-05-05 11:11 | 28.09466 | 77.40916 | 36827 ft | 533 kts | 111° |
| 2026-05-05 11:11 | 28.06798 | 77.48703 | 36833 ft | 533 kts | 111° |
| 2026-05-05 11:12 | 28.04118 | 77.56506 | 36828 ft | 532 kts | 111° |
| 2026-05-05 11:12 | 28.01443 | 77.64278 | 36833 ft | 531 kts | 111° |
| 2026-05-05 11:13 | 27.98762 | 77.72054 | 36826 ft | 531 kts | 112° |
| 2026-05-05 11:13 | 27.96088 | 77.79795 | 36836 ft | 530 kts | 112° |
| 2026-05-05 11:14 | 27.93403 | 77.87547 | 36837 ft | 529 kts | 112° |
| 2026-05-05 11:14 | 27.90726 | 77.95265 | 36828 ft | 529 kts | 112° |
| 2026-05-05 11:15 | 27.88047 | 78.02989 | 36830 ft | 530 kts | 112° |
| 2026-05-05 11:15 | 27.85346 | 78.10764 | 36828 ft | 530 kts | 112° |
| 2026-05-05 11:16 | 27.82654 | 78.18473 | 36829 ft | 530 kts | 113° |
| 2026-05-05 11:16 | 27.79799 | 78.26122 | 36831 ft | 530 kts | 114° |
| 2026-05-05 11:17 | 27.76908 | 78.33727 | 36831 ft | 528 kts | 114° |
| 2026-05-05 11:17 | 27.74033 | 78.41331 | 36831 ft | 528 kts | 114° |
| 2026-05-05 11:18 | 27.71173 | 78.48909 | 36831 ft | 528 kts | 114° |
| 2026-05-05 11:18 | 27.68295 | 78.56543 | 36830 ft | 528 kts | 114° |
| 2026-05-05 11:19 | 27.65428 | 78.64129 | 36832 ft | 528 kts | 114° |
| 2026-05-05 11:19 | 27.62545 | 78.71738 | 36836 ft | 528 kts | 115° |
| 2026-05-05 11:20 | 27.59673 | 78.79308 | 36835 ft | 527 kts | 115° |
| 2026-05-05 11:20 | 27.56789 | 78.86896 | 36834 ft | 527 kts | 115° |
| 2026-05-05 11:21 | 27.53920 | 78.94429 | 36841 ft | 527 kts | 115° |
| 2026-05-05 11:21 | 27.51017 | 79.02029 | 36830 ft | 527 kts | 115° |
| 2026-05-05 11:22 | 27.48144 | 79.09545 | 36832 ft | 526 kts | 115° |
| 2026-05-05 11:22 | 27.45255 | 79.17089 | 36825 ft | 527 kts | 115° |
| 2026-05-05 11:23 | 27.42347 | 79.24674 | 36816 ft | 526 kts | 115° |
| 2026-05-05 11:23 | 27.39463 | 79.32182 | 36818 ft | 525 kts | 115° |
| 2026-05-05 11:24 | 27.36572 | 79.39710 | 36808 ft | 525 kts | 115° |
| 2026-05-05 11:24 | 27.33674 | 79.47231 | 36806 ft | 525 kts | 116° |
| 2026-05-05 11:25 | 27.30713 | 79.54678 | 36805 ft | 525 kts | 117° |
| 2026-05-05 11:25 | 27.27688 | 79.62146 | 36800 ft | 523 kts | 116° |
| 2026-05-05 11:26 | 27.24680 | 79.69598 | 36798 ft | 524 kts | 117° |
| 2026-05-05 11:26 | 27.21676 | 79.77062 | 36802 ft | 524 kts | 117° |
| 2026-05-05 11:27 | 27.18675 | 79.84503 | 36804 ft | 523 kts | 117° |
| 2026-05-05 11:27 | 27.15682 | 79.91909 | 36803 ft | 523 kts | 117° |
| 2026-05-05 11:28 | 27.12666 | 79.99366 | 36805 ft | 524 kts | 117° |
| 2026-05-05 11:28 | 27.09670 | 80.06757 | 36806 ft | 524 kts | 117° |
| 2026-05-05 11:29 | 27.06659 | 80.14170 | 36804 ft | 522 kts | 117° |
| 2026-05-05 11:29 | 27.03640 | 80.21591 | 36806 ft | 522 kts | 117° |
| 2026-05-05 11:30 | 27.00632 | 80.28976 | 36804 ft | 522 kts | 117° |
| 2026-05-05 11:30 | 26.97622 | 80.36350 | 36805 ft | 522 kts | 117° |
| 2026-05-05 11:31 | 26.94598 | 80.43744 | 36803 ft | 522 kts | 117° |
| 2026-05-05 11:31 | 26.91561 | 80.51157 | 36987 ft | 525 kts | 117° |
| 2026-05-05 11:31 | 26.90043 | 80.54862 | 37294 ft | 524 kts | 117° |
| 2026-05-05 11:32 | 26.88523 | 80.58568 | 37601 ft | 523 kts | 117° |
| 2026-05-05 11:32 | 26.87000 | 80.62278 | 37853 ft | 523 kts | 117° |
| 2026-05-05 11:32 | 26.85488 | 80.65961 | 38138 ft | 523 kts | 118° |
| 2026-05-05 11:32 | 26.83972 | 80.69651 | 38400 ft | 523 kts | 118° |
| 2026-05-05 11:33 | 26.82453 | 80.73349 | 38665 ft | 523 kts | 118° |
| 2026-05-05 11:33 | 26.80941 | 80.77023 | 38805 ft | 523 kts | 118° |
| 2026-05-05 11:33 | 26.79414 | 80.80730 | 38808 ft | 522 kts | 118° |
| 2026-05-05 11:34 | 26.76214 | 80.87997 | 38811 ft | 519 kts | 123° |
| 2026-05-05 11:34 | 26.72385 | 80.94726 | 38807 ft | 514 kts | 130° |
| 2026-05-05 11:35 | 26.68160 | 81.01177 | 38806 ft | 513 kts | 130° |
| 2026-05-05 11:35 | 26.63948 | 81.07591 | 38806 ft | 513 kts | 130° |
| 2026-05-05 11:36 | 26.59754 | 81.13999 | 38799 ft | 512 kts | 130° |
| 2026-05-05 11:36 | 26.55561 | 81.20409 | 38794 ft | 512 kts | 130° |
| 2026-05-05 11:37 | 26.51366 | 81.26818 | 38789 ft | 511 kts | 130° |
| 2026-05-05 11:37 | 26.47169 | 81.33224 | 38786 ft | 512 kts | 130° |
| 2026-05-05 11:38 | 26.42989 | 81.39590 | 38781 ft | 512 kts | 130° |
| 2026-05-05 11:38 | 26.38795 | 81.45972 | 38782 ft | 511 kts | 130° |
| 2026-05-05 11:39 | 26.34588 | 81.52366 | 38781 ft | 510 kts | 130° |
| 2026-05-05 11:39 | 26.30392 | 81.58730 | 38782 ft | 511 kts | 130° |
| 2026-05-05 11:40 | 26.26206 | 81.65074 | 38787 ft | 510 kts | 131° |
| 2026-05-05 11:40 | 26.21985 | 81.71461 | 38785 ft | 509 kts | 131° |
| 2026-05-05 11:41 | 26.17809 | 81.77769 | 38786 ft | 508 kts | 131° |
| 2026-05-05 11:41 | 26.13620 | 81.84092 | 38782 ft | 507 kts | 131° |
| 2026-05-05 11:42 | 26.09424 | 81.90413 | 38783 ft | 507 kts | 131° |
| 2026-05-05 11:42 | 26.05262 | 81.96674 | 38797 ft | 506 kts | 131° |
| 2026-05-05 11:43 | 26.01238 | 82.02723 | 38801 ft | 505 kts | 131° |
| 2026-05-05 11:43 | 25.97053 | 82.09003 | 38791 ft | 506 kts | 131° |
| 2026-05-05 11:44 | 25.92873 | 82.15269 | 38788 ft | 506 kts | 131° |
| 2026-05-05 11:44 | 25.88703 | 82.21513 | 38780 ft | 506 kts | 131° |
| 2026-05-05 11:45 | 25.84491 | 82.27810 | 38774 ft | 507 kts | 131° |
| 2026-05-05 11:45 | 25.80292 | 82.34078 | 38776 ft | 507 kts | 131° |
| 2026-05-05 11:46 | 25.76102 | 82.40328 | 38776 ft | 507 kts | 131° |
| 2026-05-05 11:46 | 25.71876 | 82.46619 | 38779 ft | 508 kts | 131° |
| 2026-05-05 11:47 | 25.67654 | 82.52901 | 38784 ft | 508 kts | 131° |
| 2026-05-05 11:47 | 25.63447 | 82.59154 | 38789 ft | 509 kts | 131° |
| 2026-05-05 11:48 | 25.57120 | 82.68553 | 38787 ft | 508 kts | 132° |
| 2026-05-05 11:48 | 25.52899 | 82.74815 | 38790 ft | 509 kts | 132° |
| 2026-05-05 11:49 | 25.48731 | 82.81146 | 38792 ft | 511 kts | 129° |
| 2026-05-05 11:49 | 25.45104 | 82.87899 | 38794 ft | 515 kts | 121° |
| 2026-05-05 11:50 | 25.42182 | 82.95161 | 38795 ft | 520 kts | 114° |
| 2026-05-05 11:50 | 25.39704 | 83.02644 | 38789 ft | 520 kts | 114° |
| 2026-05-05 11:51 | 25.37234 | 83.10127 | 38787 ft | 520 kts | 114° |
| 2026-05-05 11:51 | 25.34729 | 83.17641 | 38784 ft | 521 kts | 114° |
| 2026-05-05 11:52 | 25.32210 | 83.25137 | 38776 ft | 521 kts | 114° |
| 2026-05-05 11:52 | 25.29697 | 83.32609 | 38771 ft | 522 kts | 114° |
| 2026-05-05 11:53 | 25.27164 | 83.40127 | 38768 ft | 522 kts | 114° |
| 2026-05-05 11:53 | 25.24625 | 83.47647 | 38768 ft | 522 kts | 114° |
| 2026-05-05 11:54 | 25.22094 | 83.55125 | 38763 ft | 522 kts | 114° |
| 2026-05-05 11:54 | 25.19555 | 83.62611 | 38760 ft | 523 kts | 114° |
| 2026-05-05 11:55 | 25.17005 | 83.70121 | 38760 ft | 524 kts | 114° |
| 2026-05-05 11:55 | 25.14451 | 83.77631 | 38758 ft | 523 kts | 114° |
| 2026-05-05 11:56 | 25.11893 | 83.85126 | 38760 ft | 523 kts | 114° |
| 2026-05-05 11:56 | 25.09336 | 83.92612 | 38755 ft | 523 kts | 114° |
| 2026-05-05 11:57 | 25.06770 | 84.00118 | 38766 ft | 522 kts | 114° |
| 2026-05-05 11:57 | 25.04208 | 84.07584 | 38776 ft | 522 kts | 115° |
| 2026-05-05 11:58 | 25.01657 | 84.15015 | 38782 ft | 522 kts | 115° |
| 2026-05-05 11:58 | 24.99079 | 84.22504 | 38784 ft | 522 kts | 114° |
| 2026-05-05 11:59 | 24.96499 | 84.29987 | 38789 ft | 523 kts | 114° |
| 2026-05-05 11:59 | 24.93914 | 84.37472 | 38789 ft | 524 kts | 114° |
| 2026-05-05 12:00 | 24.91337 | 84.44929 | 38792 ft | 523 kts | 114° |
| 2026-05-05 12:00 | 24.88741 | 84.52419 | 38792 ft | 524 kts | 114° |
| 2026-05-05 12:01 | 24.86147 | 84.59898 | 38795 ft | 523 kts | 114° |
| 2026-05-05 12:01 | 24.83550 | 84.67371 | 38797 ft | 523 kts | 115° |
| 2026-05-05 12:02 | 24.80946 | 84.74859 | 38806 ft | 523 kts | 115° |
| 2026-05-05 12:02 | 24.78368 | 84.82269 | 38803 ft | 522 kts | 115° |
| 2026-05-05 12:03 | 24.75703 | 84.89723 | 38817 ft | 521 kts | 118° |
| 2026-05-05 12:03 | 24.72479 | 84.96755 | 38823 ft | 517 kts | 125° |
| 2026-05-05 12:04 | 24.68593 | 85.03355 | 38829 ft | 513 kts | 129° |
| 2026-05-05 12:04 | 24.64549 | 85.09850 | 38833 ft | 513 kts | 129° |
| 2026-05-05 12:05 | 24.60544 | 85.16309 | 38835 ft | 513 kts | 129° |
| 2026-05-05 12:05 | 24.56566 | 85.22739 | 38837 ft | 512 kts | 129° |
| 2026-05-05 12:06 | 24.52564 | 85.29208 | 38840 ft | 512 kts | 129° |
| 2026-05-05 12:06 | 24.48569 | 85.35661 | 38846 ft | 511 kts | 129° |
| 2026-05-05 12:07 | 24.44569 | 85.42108 | 38853 ft | 511 kts | 129° |
| 2026-05-05 12:07 | 24.40571 | 85.48544 | 38857 ft | 512 kts | 129° |
| 2026-05-05 12:08 | 24.36576 | 85.54978 | 38860 ft | 510 kts | 129° |
| 2026-05-05 12:08 | 24.32593 | 85.61374 | 38850 ft | 510 kts | 129° |
| 2026-05-05 12:09 | 24.28585 | 85.67803 | 38848 ft | 509 kts | 129° |
| 2026-05-05 12:09 | 24.24599 | 85.74193 | 38843 ft | 509 kts | 129° |
| 2026-05-05 12:10 | 24.20627 | 85.80550 | 38835 ft | 509 kts | 129° |
| 2026-05-05 12:10 | 24.16616 | 85.86962 | 38829 ft | 508 kts | 129° |
| 2026-05-05 12:11 | 24.12627 | 85.93329 | 38829 ft | 508 kts | 129° |
| 2026-05-05 12:11 | 24.08654 | 85.99667 | 38837 ft | 507 kts | 129° |
| 2026-05-05 12:12 | 24.04681 | 86.05994 | 38825 ft | 506 kts | 129° |
| 2026-05-05 12:12 | 24.00690 | 86.12341 | 38828 ft | 507 kts | 129° |
| 2026-05-05 12:13 | 23.96692 | 86.18695 | 38832 ft | 506 kts | 129° |
| 2026-05-05 12:13 | 23.92727 | 86.24992 | 38823 ft | 505 kts | 129° |
| 2026-05-05 12:14 | 23.88727 | 86.31342 | 38816 ft | 505 kts | 129° |
| 2026-05-05 12:14 | 23.84765 | 86.37631 | 38816 ft | 504 kts | 129° |
| 2026-05-05 12:15 | 23.80805 | 86.43976 | 38805 ft | 506 kts | 127° |
| 2026-05-05 12:15 | 23.77119 | 86.50522 | 38806 ft | 507 kts | 126° |
| 2026-05-05 12:16 | 23.73491 | 86.57075 | 38803 ft | 507 kts | 126° |
| 2026-05-05 12:16 | 23.69830 | 86.63676 | 38791 ft | 507 kts | 126° |
| 2026-05-05 12:17 | 23.66191 | 86.70225 | 38792 ft | 507 kts | 126° |
| 2026-05-05 12:17 | 23.62528 | 86.76807 | 38788 ft | 507 kts | 126° |
| 2026-05-05 12:18 | 23.58889 | 86.83342 | 38788 ft | 506 kts | 126° |
| 2026-05-05 12:18 | 23.55216 | 86.89929 | 38793 ft | 507 kts | 126° |
| 2026-05-05 12:19 | 23.51572 | 86.96472 | 38795 ft | 506 kts | 126° |
| 2026-05-05 12:19 | 23.47926 | 87.02990 | 38793 ft | 507 kts | 126° |
| 2026-05-05 12:20 | 23.44243 | 87.09534 | 38798 ft | 507 kts | 126° |
| 2026-05-05 12:20 | 23.40566 | 87.16072 | 38796 ft | 507 kts | 126° |
| 2026-05-05 12:21 | 23.36892 | 87.22619 | 38792 ft | 507 kts | 126° |
| 2026-05-05 12:21 | 23.33222 | 87.29157 | 38797 ft | 508 kts | 126° |
| 2026-05-05 12:22 | 23.29538 | 87.35715 | 38793 ft | 508 kts | 126° |
| 2026-05-05 12:22 | 23.25857 | 87.42256 | 38789 ft | 508 kts | 126° |
| 2026-05-05 12:23 | 23.22172 | 87.48795 | 38777 ft | 508 kts | 126° |
| 2026-05-05 12:23 | 23.18494 | 87.55314 | 38764 ft | 509 kts | 126° |
| 2026-05-05 12:24 | 23.14804 | 87.61849 | 38768 ft | 509 kts | 126° |
| 2026-05-05 12:24 | 23.11111 | 87.68381 | 38766 ft | 509 kts | 126° |
| 2026-05-05 12:25 | 23.07413 | 87.74912 | 38768 ft | 508 kts | 126° |
| 2026-05-05 12:25 | 23.03702 | 87.81461 | 38767 ft | 509 kts | 126° |
| 2026-05-05 12:26 | 22.99999 | 87.87988 | 38767 ft | 508 kts | 126° |
| 2026-05-05 12:26 | 22.96302 | 87.94492 | 38764 ft | 508 kts | 126° |
| 2026-05-05 12:27 | 22.92610 | 88.00977 | 38764 ft | 508 kts | 126° |
| 2026-05-05 12:27 | 22.88888 | 88.07512 | 38765 ft | 508 kts | 126° |
| 2026-05-05 12:28 | 22.85200 | 88.13984 | 38768 ft | 506 kts | 126° |
| 2026-05-05 12:28 | 22.81508 | 88.20454 | 38771 ft | 505 kts | 126° |
| 2026-05-05 12:29 | 22.77795 | 88.26954 | 38779 ft | 505 kts | 126° |
| 2026-05-05 12:29 | 22.74109 | 88.33408 | 38781 ft | 505 kts | 126° |
| 2026-05-05 12:30 | 22.70417 | 88.39869 | 38788 ft | 504 kts | 126° |
| 2026-05-05 12:30 | 22.66634 | 88.46242 | 38793 ft | 501 kts | 129° |
| 2026-05-05 12:31 | 22.62586 | 88.52371 | 38795 ft | 500 kts | 130° |
| 2026-05-05 12:31 | 22.58556 | 88.58460 | 38794 ft | 500 kts | 130° |
| 2026-05-05 12:32 | 22.54521 | 88.64574 | 38791 ft | 499 kts | 130° |
| 2026-05-05 12:32 | 22.50469 | 88.70712 | 38791 ft | 499 kts | 130° |
| 2026-05-05 12:33 | 22.46441 | 88.76811 | 38793 ft | 499 kts | 130° |
| 2026-05-05 12:33 | 22.42428 | 88.82885 | 38794 ft | 499 kts | 130° |
| 2026-05-05 12:34 | 22.38404 | 88.88972 | 38795 ft | 499 kts | 129° |
| 2026-05-05 12:34 | 22.34383 | 88.95059 | 38793 ft | 498 kts | 129° |
| 2026-05-05 12:35 | 22.30346 | 89.01157 | 38792 ft | 498 kts | 128° |
| 2026-05-05 12:35 | 22.26480 | 89.07344 | 38797 ft | 499 kts | 127° |
| 2026-05-05 12:36 | 22.22645 | 89.13554 | 38796 ft | 498 kts | 127° |
| 2026-05-05 12:36 | 22.18819 | 89.19754 | 38797 ft | 498 kts | 127° |
| 2026-05-05 12:37 | 22.14974 | 89.25976 | 38801 ft | 498 kts | 127° |
| 2026-05-05 12:37 | 22.11157 | 89.32153 | 38799 ft | 499 kts | 127° |
| 2026-05-05 12:38 | 22.07313 | 89.38363 | 38798 ft | 500 kts | 127° |
| 2026-05-05 12:38 | 22.03457 | 89.44585 | 38800 ft | 500 kts | 127° |
| 2026-05-05 12:39 | 21.99580 | 89.50834 | 38805 ft | 500 kts | 127° |
| 2026-05-05 12:39 | 21.95731 | 89.57032 | 38813 ft | 499 kts | 127° |
| 2026-05-05 12:40 | 21.91883 | 89.63220 | 38815 ft | 499 kts | 127° |
| 2026-05-05 12:40 | 21.87998 | 89.69463 | 38812 ft | 498 kts | 127° |
| 2026-05-05 12:41 | 21.84151 | 89.75635 | 38806 ft | 498 kts | 127° |
| 2026-05-05 12:41 | 21.80291 | 89.81821 | 38803 ft | 498 kts | 127° |
| 2026-05-05 12:42 | 21.76438 | 89.87991 | 38804 ft | 499 kts | 127° |
| 2026-05-05 12:42 | 21.72561 | 89.94192 | 38803 ft | 500 kts | 127° |
| 2026-05-05 12:43 | 21.68687 | 90.00381 | 38807 ft | 500 kts | 127° |
| 2026-05-05 12:43 | 21.64822 | 90.06549 | 38806 ft | 499 kts | 127° |
| 2026-05-05 12:44 | 21.60947 | 90.12727 | 38807 ft | 499 kts | 127° |
| 2026-05-05 12:44 | 21.57054 | 90.18927 | 38810 ft | 499 kts | 127° |
| 2026-05-05 12:45 | 21.53182 | 90.25086 | 38811 ft | 499 kts | 127° |
| 2026-05-05 12:45 | 21.49310 | 90.31242 | 38805 ft | 499 kts | 127° |
| 2026-05-05 12:46 | 21.45415 | 90.37430 | 38809 ft | 499 kts | 127° |
| 2026-05-05 12:46 | 21.41555 | 90.43560 | 38814 ft | 500 kts | 127° |
| 2026-05-05 12:47 | 21.37671 | 90.49731 | 38821 ft | 500 kts | 127° |
| 2026-05-05 12:47 | 21.33771 | 90.55901 | 38816 ft | 500 kts | 127° |
| 2026-05-05 12:48 | 21.29860 | 90.62040 | 38821 ft | 500 kts | 127° |
| 2026-05-05 12:48 | 21.25937 | 90.68210 | 38816 ft | 499 kts | 127° |
| 2026-05-05 12:49 | 21.22016 | 90.74388 | 38822 ft | 499 kts | 127° |
| 2026-05-05 12:49 | 21.18137 | 90.80501 | 38821 ft | 499 kts | 127° |
| 2026-05-05 12:50 | 21.14250 | 90.86622 | 38822 ft | 498 kts | 127° |
| 2026-05-05 12:50 | 21.10336 | 90.92778 | 38826 ft | 498 kts | 127° |
| 2026-05-05 12:51 | 21.06439 | 90.98897 | 38822 ft | 500 kts | 127° |
| 2026-05-05 12:51 | 21.02514 | 91.05054 | 38822 ft | 501 kts | 127° |
| 2026-05-05 12:52 | 20.98608 | 91.11178 | 38822 ft | 500 kts | 127° |
| 2026-05-05 12:52 | 20.94672 | 91.17342 | 38820 ft | 501 kts | 127° |
| 2026-05-05 12:53 | 20.90744 | 91.23487 | 38817 ft | 501 kts | 127° |
| 2026-05-05 12:53 | 20.86824 | 91.29614 | 38820 ft | 500 kts | 127° |
| 2026-05-05 12:54 | 20.80927 | 91.38813 | 38819 ft | 499 kts | 127° |
| 2026-05-05 12:55 | 20.77016 | 91.44910 | 38821 ft | 499 kts | 127° |
| 2026-05-05 12:55 | 20.73084 | 91.51030 | 38825 ft | 500 kts | 127° |
| 2026-05-05 12:56 | 20.69150 | 91.57149 | 38826 ft | 501 kts | 127° |
| 2026-05-05 12:56 | 20.65214 | 91.63270 | 38825 ft | 500 kts | 127° |
| 2026-05-05 12:57 | 20.61285 | 91.69369 | 38824 ft | 500 kts | 127° |
| 2026-05-05 12:57 | 20.57351 | 91.75469 | 38823 ft | 500 kts | 127° |
| 2026-05-05 12:58 | 20.53397 | 91.81599 | 38823 ft | 501 kts | 127° |
| 2026-05-05 12:58 | 20.49459 | 91.87702 | 38824 ft | 501 kts | 127° |
| 2026-05-05 12:59 | 20.45506 | 91.93832 | 38820 ft | 501 kts | 127° |
| 2026-05-05 12:59 | 20.41556 | 91.99936 | 38825 ft | 500 kts | 127° |
| 2026-05-05 13:00 | 20.35555 | 92.08983 | 38821 ft | 499 kts | 128° |
| 2026-05-05 13:01 | 20.27558 | 92.21049 | 38819 ft | 500 kts | 128° |
| 2026-05-05 13:01 | 20.23578 | 92.27061 | 38820 ft | 500 kts | 127° |
| 2026-05-05 13:02 | 20.19561 | 92.33124 | 38817 ft | 499 kts | 127° |
| 2026-05-05 13:02 | 20.15565 | 92.39153 | 38821 ft | 500 kts | 127° |
| 2026-05-05 13:03 | 20.11570 | 92.45168 | 38816 ft | 500 kts | 127° |
| 2026-05-05 13:03 | 20.07556 | 92.51212 | 38818 ft | 500 kts | 127° |
| 2026-05-05 13:04 | 20.03544 | 92.57245 | 38816 ft | 500 kts | 127° |
| 2026-05-05 13:04 | 19.99538 | 92.63261 | 38822 ft | 500 kts | 127° |
| 2026-05-05 13:05 | 19.95506 | 92.69312 | 38821 ft | 499 kts | 128° |
| 2026-05-05 13:05 | 19.91481 | 92.75344 | 38820 ft | 499 kts | 128° |
| 2026-05-05 13:06 | 19.87456 | 92.81372 | 38819 ft | 500 kts | 128° |
| 2026-05-05 13:06 | 19.83450 | 92.87364 | 38818 ft | 500 kts | 128° |
| 2026-05-05 13:07 | 19.79425 | 92.93378 | 38820 ft | 500 kts | 127° |
| 2026-05-05 13:07 | 19.75397 | 92.99390 | 38819 ft | 499 kts | 127° |
| 2026-05-05 13:08 | 19.71393 | 93.05364 | 38821 ft | 499 kts | 127° |
| 2026-05-05 13:08 | 19.67360 | 93.11374 | 38821 ft | 498 kts | 127° |
| 2026-05-05 13:09 | 19.63358 | 93.17333 | 38821 ft | 499 kts | 127° |
| 2026-05-05 13:09 | 19.59330 | 93.23320 | 38821 ft | 499 kts | 127° |
| 2026-05-05 13:10 | 19.55316 | 93.29282 | 38821 ft | 499 kts | 127° |
| 2026-05-05 13:10 | 19.51264 | 93.35294 | 38821 ft | 499 kts | 127° |
| 2026-05-05 13:11 | 19.47248 | 93.41252 | 38821 ft | 499 kts | 127° |
| 2026-05-05 13:11 | 19.43198 | 93.47251 | 38823 ft | 499 kts | 127° |
| 2026-05-05 13:12 | 19.39169 | 93.53213 | 38830 ft | 499 kts | 127° |
| 2026-05-05 13:12 | 19.35159 | 93.59141 | 38833 ft | 498 kts | 127° |
| 2026-05-05 13:13 | 19.31104 | 93.65128 | 38831 ft | 499 kts | 127° |
| 2026-05-05 13:13 | 19.27054 | 93.71103 | 38828 ft | 499 kts | 127° |
| 2026-05-05 13:14 | 19.23009 | 93.77068 | 38826 ft | 499 kts | 127° |
| 2026-05-05 13:14 | 19.18970 | 93.83016 | 38825 ft | 499 kts | 127° |
| 2026-05-05 13:15 | 19.14903 | 93.88998 | 38817 ft | 498 kts | 127° |
| 2026-05-05 13:15 | 19.10858 | 93.94943 | 38807 ft | 498 kts | 127° |
| 2026-05-05 13:16 | 19.06817 | 94.00875 | 38816 ft | 498 kts | 127° |
| 2026-05-05 13:16 | 19.02787 | 94.06789 | 38821 ft | 498 kts | 127° |
| 2026-05-05 13:17 | 18.98722 | 94.12748 | 38819 ft | 498 kts | 127° |
| 2026-05-05 13:17 | 18.94679 | 94.18669 | 38811 ft | 497 kts | 127° |
| 2026-05-05 13:18 | 18.90646 | 94.24573 | 38814 ft | 496 kts | 127° |
| 2026-05-05 13:18 | 18.86586 | 94.30506 | 38824 ft | 496 kts | 127° |
| 2026-05-05 13:19 | 18.82533 | 94.36425 | 38834 ft | 496 kts | 127° |
| 2026-05-05 13:19 | 18.78497 | 94.42314 | 38851 ft | 496 kts | 127° |
| 2026-05-05 13:20 | 18.74481 | 94.48172 | 38867 ft | 495 kts | 127° |
| 2026-05-05 13:20 | 18.70443 | 94.54060 | 38881 ft | 495 kts | 127° |
| 2026-05-05 13:21 | 18.66422 | 94.59920 | 38897 ft | 495 kts | 127° |
| 2026-05-05 13:21 | 18.62378 | 94.65819 | 38915 ft | 494 kts | 127° |
| 2026-05-05 13:22 | 18.58318 | 94.71723 | 38949 ft | 494 kts | 127° |
| 2026-05-05 13:22 | 18.54373 | 94.77613 | 38968 ft | 493 kts | 126° |
| 2026-05-05 13:23 | 18.50466 | 94.83581 | 38941 ft | 493 kts | 126° |
| 2026-05-05 13:23 | 18.46577 | 94.89516 | 38897 ft | 494 kts | 126° |
| 2026-05-05 13:24 | 18.42674 | 94.95460 | 38860 ft | 493 kts | 126° |
| 2026-05-05 13:24 | 18.38767 | 95.01408 | 38824 ft | 493 kts | 125° |
| 2026-05-05 13:25 | 18.34883 | 95.07324 | 38818 ft | 493 kts | 126° |
| 2026-05-05 13:25 | 18.30995 | 95.13234 | 38814 ft | 493 kts | 126° |
| 2026-05-05 13:26 | 18.26982 | 95.19065 | 38808 ft | 493 kts | 128° |
| 2026-05-05 13:26 | 18.22826 | 95.24839 | 38801 ft | 493 kts | 128° |
| 2026-05-05 13:27 | 18.18725 | 95.30571 | 38793 ft | 493 kts | 127° |
| 2026-05-05 13:27 | 18.14595 | 95.36371 | 38795 ft | 494 kts | 127° |
| 2026-05-05 13:28 | 18.10500 | 95.42131 | 38796 ft | 494 kts | 127° |
| 2026-05-05 13:28 | 18.06389 | 95.47909 | 38797 ft | 493 kts | 127° |
| 2026-05-05 13:29 | 18.02267 | 95.53696 | 38795 ft | 493 kts | 127° |
| 2026-05-05 13:29 | 17.98185 | 95.59425 | 38795 ft | 493 kts | 127° |
| 2026-05-05 13:30 | 17.94053 | 95.65215 | 38806 ft | 494 kts | 128° |
| 2026-05-05 13:30 | 17.89919 | 95.71007 | 38808 ft | 494 kts | 128° |
| 2026-05-05 13:31 | 17.85765 | 95.76822 | 38802 ft | 494 kts | 128° |
| 2026-05-05 13:31 | 17.81634 | 95.82600 | 38794 ft | 494 kts | 128° |
| 2026-05-05 13:32 | 17.77519 | 95.88348 | 38800 ft | 494 kts | 128° |
| 2026-05-05 13:32 | 17.73398 | 95.94102 | 38801 ft | 494 kts | 128° |
| 2026-05-05 13:33 | 17.69279 | 95.99847 | 38801 ft | 494 kts | 128° |
| 2026-05-05 13:33 | 17.65137 | 96.05620 | 38802 ft | 494 kts | 128° |
| 2026-05-05 13:34 | 17.60997 | 96.11385 | 38800 ft | 495 kts | 128° |
| 2026-05-05 13:34 | 17.56867 | 96.17131 | 38805 ft | 495 kts | 127° |
| 2026-05-05 13:35 | 17.52724 | 96.22895 | 38803 ft | 495 kts | 127° |
| 2026-05-05 13:35 | 17.48577 | 96.28661 | 38803 ft | 495 kts | 127° |
| 2026-05-05 13:36 | 17.44440 | 96.34406 | 38803 ft | 494 kts | 127° |
| 2026-05-05 13:36 | 17.40317 | 96.40134 | 38804 ft | 494 kts | 127° |
| 2026-05-05 13:37 | 17.36183 | 96.45879 | 38807 ft | 494 kts | 127° |
| 2026-05-05 13:37 | 17.32022 | 96.51649 | 38805 ft | 495 kts | 127° |
| 2026-05-05 13:38 | 17.27847 | 96.57301 | 38803 ft | 494 kts | 128° |
| 2026-05-05 13:38 | 17.23614 | 96.62986 | 38802 ft | 494 kts | 128° |
| 2026-05-05 13:39 | 17.19368 | 96.68713 | 38800 ft | 493 kts | 128° |
| 2026-05-05 13:39 | 17.15174 | 96.74375 | 38800 ft | 493 kts | 128° |
| 2026-05-05 13:40 | 17.10968 | 96.80054 | 38802 ft | 493 kts | 128° |
| 2026-05-05 13:40 | 17.06777 | 96.85709 | 38805 ft | 494 kts | 128° |
| 2026-05-05 13:41 | 17.02257 | 96.91804 | 38799 ft | 495 kts | 128° |
| 2026-05-05 13:41 | 16.98023 | 96.97508 | 38803 ft | 494 kts | 128° |
| 2026-05-05 13:42 | 16.93831 | 97.03151 | 38804 ft | 492 kts | 128° |
| 2026-05-05 13:42 | 16.89624 | 97.08810 | 38808 ft | 491 kts | 128° |
| 2026-05-05 13:43 | 16.85421 | 97.14459 | 38810 ft | 491 kts | 128° |
| 2026-05-05 13:43 | 16.81236 | 97.20080 | 38814 ft | 492 kts | 128° |
| 2026-05-05 13:44 | 16.77046 | 97.25703 | 38816 ft | 492 kts | 128° |
| 2026-05-05 13:44 | 16.72836 | 97.31349 | 38816 ft | 492 kts | 128° |
| 2026-05-05 13:45 | 16.68624 | 97.36994 | 38821 ft | 492 kts | 128° |
| 2026-05-05 13:45 | 16.64441 | 97.42594 | 38825 ft | 491 kts | 128° |
| 2026-05-05 13:46 | 16.60245 | 97.48209 | 38829 ft | 490 kts | 128° |
| 2026-05-05 13:46 | 16.56037 | 97.53839 | 38831 ft | 490 kts | 128° |
| 2026-05-05 13:47 | 16.51848 | 97.59441 | 38835 ft | 490 kts | 128° |
| 2026-05-05 13:47 | 16.47682 | 97.65015 | 38840 ft | 489 kts | 128° |
| 2026-05-05 13:48 | 16.43487 | 97.70628 | 38841 ft | 489 kts | 128° |
| 2026-05-05 13:48 | 16.39275 | 97.76191 | 38846 ft | 488 kts | 130° |
| 2026-05-05 13:49 | 16.34652 | 97.81355 | 38851 ft | 488 kts | 136° |
| 2026-05-05 13:49 | 16.29549 | 97.86064 | 38855 ft | 487 kts | 140° |
| 2026-05-05 13:50 | 16.24444 | 97.90634 | 38853 ft | 487 kts | 139° |
| 2026-05-05 13:50 | 16.19308 | 97.95244 | 38855 ft | 487 kts | 139° |
| 2026-05-05 13:51 | 16.14160 | 97.99870 | 38865 ft | 486 kts | 139° |
| 2026-05-05 13:51 | 16.09033 | 98.04475 | 38867 ft | 486 kts | 139° |
| 2026-05-05 13:52 | 16.03908 | 98.09074 | 38875 ft | 485 kts | 139° |
| 2026-05-05 13:52 | 15.98800 | 98.13660 | 38882 ft | 484 kts | 139° |
| 2026-05-05 13:53 | 15.93734 | 98.18205 | 38895 ft | 484 kts | 139° |
| 2026-05-05 13:53 | 15.88586 | 98.22817 | 38896 ft | 484 kts | 139° |
| 2026-05-05 13:54 | 15.83520 | 98.27353 | 38900 ft | 484 kts | 139° |
| 2026-05-05 13:54 | 15.78411 | 98.31928 | 38900 ft | 484 kts | 139° |
| 2026-05-05 13:55 | 15.73285 | 98.36516 | 38892 ft | 485 kts | 139° |
| 2026-05-05 13:55 | 15.68196 | 98.41068 | 38905 ft | 485 kts | 139° |
| 2026-05-05 13:56 | 15.63087 | 98.45639 | 38929 ft | 485 kts | 139° |
| 2026-05-05 13:56 | 15.57973 | 98.50219 | 38760 ft | 485 kts | 139° |
| 2026-05-05 13:57 | 15.55406 | 98.52515 | 38432 ft | 482 kts | 139° |
| 2026-05-05 13:57 | 15.52890 | 98.54761 | 38134 ft | 479 kts | 139° |
| 2026-05-05 13:57 | 15.50414 | 98.57025 | 37840 ft | 476 kts | 137° |
| 2026-05-05 13:57 | 15.48044 | 98.59404 | 37546 ft | 475 kts | 134° |
| 2026-05-05 13:58 | 15.45772 | 98.61940 | 37248 ft | 475 kts | 130° |
| 2026-05-05 13:58 | 15.43663 | 98.64549 | 36956 ft | 476 kts | 128° |
| 2026-05-05 13:58 | 15.41561 | 98.67236 | 36659 ft | 476 kts | 128° |
| 2026-05-05 13:58 | 15.39476 | 98.69912 | 36364 ft | 477 kts | 128° |
| 2026-05-05 13:59 | 15.35317 | 98.75243 | 35778 ft | 477 kts | 128° |
| 2026-05-05 13:59 | 15.33241 | 98.77897 | 35487 ft | 478 kts | 128° |
| 2026-05-05 14:00 | 15.29036 | 98.83266 | 34902 ft | 479 kts | 128° |
| 2026-05-05 14:00 | 15.27651 | 98.85035 | 34708 ft | 479 kts | 128° |
| 2026-05-05 14:00 | 15.24846 | 98.88612 | 34319 ft | 480 kts | 128° |
| 2026-05-05 14:00 | 15.22729 | 98.91311 | 34027 ft | 481 kts | 128° |
| 2026-05-05 14:01 | 15.20603 | 98.94021 | 33736 ft | 482 kts | 128° |
| 2026-05-05 14:01 | 15.18491 | 98.96712 | 33445 ft | 482 kts | 128° |
| 2026-05-05 14:01 | 15.16385 | 98.99393 | 33156 ft | 483 kts | 128° |
| 2026-05-05 14:01 | 15.14260 | 99.02099 | 32869 ft | 484 kts | 128° |
| 2026-05-05 14:02 | 15.12137 | 99.04801 | 32585 ft | 485 kts | 128° |
| 2026-05-05 14:02 | 15.09994 | 99.07529 | 32320 ft | 486 kts | 128° |
| 2026-05-05 14:02 | 15.07875 | 99.10223 | 32070 ft | 486 kts | 128° |
| 2026-05-05 14:02 | 15.05723 | 99.12959 | 31816 ft | 487 kts | 128° |
| 2026-05-05 14:03 | 15.03588 | 99.15674 | 31566 ft | 486 kts | 128° |
| 2026-05-05 14:03 | 15.01476 | 99.18359 | 31319 ft | 486 kts | 128° |
| 2026-05-05 14:03 | 14.99336 | 99.21079 | 31071 ft | 486 kts | 128° |
| 2026-05-05 14:03 | 14.97198 | 99.23799 | 30824 ft | 486 kts | 128° |
| 2026-05-05 14:04 | 14.95057 | 99.26521 | 30574 ft | 487 kts | 128° |
| 2026-05-05 14:04 | 14.92946 | 99.29206 | 30327 ft | 487 kts | 128° |
| 2026-05-05 14:04 | 14.90792 | 99.31950 | 30008 ft | 488 kts | 128° |
| 2026-05-05 14:04 | 14.88648 | 99.34676 | 29558 ft | 488 kts | 128° |
| 2026-05-05 14:05 | 14.86491 | 99.37412 | 28965 ft | 489 kts | 128° |
| 2026-05-05 14:05 | 14.84327 | 99.40147 | 28321 ft | 489 kts | 128° |
| 2026-05-05 14:05 | 14.82187 | 99.42836 | 27669 ft | 489 kts | 128° |
| 2026-05-05 14:05 | 14.80027 | 99.45554 | 27197 ft | 484 kts | 128° |
| 2026-05-05 14:06 | 14.77908 | 99.48225 | 26674 ft | 481 kts | 128° |
| 2026-05-05 14:06 | 14.75806 | 99.50877 | 26181 ft | 477 kts | 128° |
| 2026-05-05 14:06 | 14.73713 | 99.53522 | 25631 ft | 475 kts | 128° |
| 2026-05-05 14:06 | 14.71630 | 99.56155 | 25131 ft | 471 kts | 128° |
| 2026-05-05 14:07 | 14.69580 | 99.58749 | 24668 ft | 467 kts | 128° |
| 2026-05-05 14:07 | 14.67527 | 99.61343 | 24207 ft | 462 kts | 128° |
| 2026-05-05 14:07 | 14.65504 | 99.63904 | 23606 ft | 457 kts | 128° |
| 2026-05-05 14:07 | 14.63504 | 99.66435 | 23294 ft | 456 kts | 129° |
| 2026-05-05 14:08 | 14.61495 | 99.68975 | 23004 ft | 454 kts | 129° |
| 2026-05-05 14:08 | 14.59501 | 99.71496 | 22679 ft | 453 kts | 129° |
| 2026-05-05 14:08 | 14.57492 | 99.74033 | 22092 ft | 452 kts | 129° |
| 2026-05-05 14:08 | 14.55519 | 99.76525 | 21553 ft | 450 kts | 129° |
| 2026-05-05 14:09 | 14.53543 | 99.79022 | 21053 ft | 447 kts | 129° |
| 2026-05-05 14:09 | 14.51585 | 99.81499 | 20246 ft | 442 kts | 129° |
| 2026-05-05 14:09 | 14.49676 | 99.83908 | 19086 ft | 437 kts | 129° |
| 2026-05-05 14:09 | 14.47765 | 99.86315 | 18029 ft | 429 kts | 129° |
| 2026-05-05 14:10 | 14.45928 | 99.88676 | 17212 ft | 413 kts | 125° |
| 2026-05-05 14:10 | 14.44460 | 99.91178 | 16903 ft | 408 kts | 116° |
| 2026-05-05 14:10 | 14.43427 | 99.93845 | 16666 ft | 394 kts | 107° |
| 2026-05-05 14:10 | 14.42695 | 99.96563 | 16414 ft | 385 kts | 103° |
| 2026-05-05 14:11 | 14.42064 | 99.99208 | 16145 ft | 378 kts | 103° |
| 2026-05-05 14:11 | 14.41440 | 100.01820 | 15875 ft | 371 kts | 103° |
| 2026-05-05 14:11 | 14.40815 | 100.04372 | 15460 ft | 361 kts | 103° |
| 2026-05-05 14:11 | 14.40206 | 100.06829 | 15223 ft | 353 kts | 103° |
| 2026-05-05 14:12 | 14.39601 | 100.09256 | 14991 ft | 352 kts | 104° |
| 2026-05-05 14:12 | 14.38987 | 100.11721 | 14748 ft | 350 kts | 104° |
| 2026-05-05 14:12 | 14.38382 | 100.14146 | 14504 ft | 349 kts | 104° |
| 2026-05-05 14:12 | 14.37778 | 100.16564 | 14261 ft | 348 kts | 104° |
| 2026-05-05 14:13 | 14.37175 | 100.18979 | 14041 ft | 346 kts | 104° |
| 2026-05-05 14:13 | 14.36575 | 100.21371 | 13989 ft | 347 kts | 104° |
| 2026-05-05 14:13 | 14.35968 | 100.23792 | 13984 ft | 347 kts | 104° |
| 2026-05-05 14:13 | 14.35366 | 100.26197 | 13982 ft | 348 kts | 104° |
| 2026-05-05 14:14 | 14.34760 | 100.28624 | 13981 ft | 348 kts | 104° |
| 2026-05-05 14:14 | 14.34156 | 100.31033 | 13981 ft | 348 kts | 104° |
| 2026-05-05 14:14 | 14.33547 | 100.33466 | 13989 ft | 348 kts | 104° |
| 2026-05-05 14:14 | 14.32945 | 100.35860 | 13857 ft | 349 kts | 104° |
| 2026-05-05 14:15 | 14.32340 | 100.38271 | 13599 ft | 345 kts | 104° |
| 2026-05-05 14:15 | 14.31741 | 100.40661 | 13366 ft | 340 kts | 104° |
| 2026-05-05 14:15 | 14.31163 | 100.42965 | 13004 ft | 327 kts | 104° |
| 2026-05-05 14:15 | 14.30608 | 100.45180 | 12790 ft | 311 kts | 104° |
| 2026-05-05 14:16 | 14.30072 | 100.47318 | 12565 ft | 308 kts | 104° |
| 2026-05-05 14:16 | 14.29535 | 100.49452 | 12327 ft | 304 kts | 104° |
| 2026-05-05 14:16 | 14.29009 | 100.51543 | 12088 ft | 301 kts | 104° |
| 2026-05-05 14:16 | 14.28484 | 100.53635 | 11846 ft | 299 kts | 104° |
| 2026-05-05 14:17 | 14.27967 | 100.55695 | 11609 ft | 300 kts | 104° |
| 2026-05-05 14:17 | 14.27445 | 100.57775 | 11369 ft | 299 kts | 104° |
| 2026-05-05 14:17 | 14.26920 | 100.59856 | 11129 ft | 298 kts | 104° |
| 2026-05-05 14:17 | 14.26400 | 100.61922 | 11001 ft | 296 kts | 104° |
| 2026-05-05 14:18 | 14.25707 | 100.63917 | 10978 ft | 298 kts | 122° |
| 2026-05-05 14:18 | 14.24243 | 100.65424 | 10982 ft | 299 kts | 149° |
| 2026-05-05 14:18 | 14.22267 | 100.66117 | 10831 ft | 300 kts | 175° |
| 2026-05-05 14:18 | 14.20205 | 100.65881 | 10631 ft | 299 kts | 195° |
| 2026-05-05 14:19 | 14.18175 | 100.65310 | 10446 ft | 298 kts | 195° |
| 2026-05-05 14:19 | 14.16189 | 100.64754 | 10281 ft | 297 kts | 195° |
| 2026-05-05 14:19 | 14.14179 | 100.64205 | 10136 ft | 297 kts | 194° |
| 2026-05-05 14:19 | 14.12158 | 100.63664 | 9982 ft | 296 kts | 194° |
| 2026-05-05 14:20 | 14.10169 | 100.63139 | 9765 ft | 296 kts | 194° |
| 2026-05-05 14:20 | 14.08167 | 100.62612 | 9509 ft | 295 kts | 194° |
| 2026-05-05 14:20 | 14.06187 | 100.62092 | 9241 ft | 294 kts | 194° |
| 2026-05-05 14:20 | 14.04222 | 100.61575 | 9099 ft | 284 kts | 194° |
| 2026-05-05 14:21 | 14.02346 | 100.61089 | 9085 ft | 264 kts | 191° |
| 2026-05-05 14:21 | 14.00570 | 100.61130 | 9037 ft | 252 kts | 159° |
| 2026-05-05 14:21 | 13.99122 | 100.62111 | 8919 ft | 251 kts | 129° |
| 2026-05-05 14:21 | 13.98333 | 100.63695 | 8597 ft | 253 kts | 105° |
| 2026-05-05 14:22 | 13.97910 | 100.65448 | 8297 ft | 256 kts | 103° |
| 2026-05-05 14:22 | 13.97489 | 100.67229 | 7990 ft | 259 kts | 104° |
| 2026-05-05 14:22 | 13.97050 | 100.69056 | 7667 ft | 263 kts | 100° |
| 2026-05-05 14:22 | 13.97157 | 100.70912 | 7309 ft | 266 kts | 67° |
| 2026-05-05 14:23 | 13.98288 | 100.72384 | 6987 ft | 268 kts | 34° |
| 2026-05-05 14:23 | 14.00050 | 100.73067 | 6665 ft | 270 kts | 13° |
| 2026-05-05 14:23 | 14.01855 | 100.73502 | 6327 ft | 261 kts | 20° |
| 2026-05-05 14:23 | 14.03303 | 100.74483 | 5976 ft | 248 kts | 55° |
| 2026-05-05 14:24 | 14.03864 | 100.76093 | 5648 ft | 234 kts | 89° |
| 2026-05-05 14:24 | 14.03595 | 100.77683 | 5345 ft | 224 kts | 107° |
| 2026-05-05 14:24 | 14.03128 | 100.79210 | 5055 ft | 218 kts | 107° |
| 2026-05-05 14:24 | 14.02694 | 100.80656 | 4761 ft | 210 kts | 106° |
| 2026-05-05 14:25 | 14.02282 | 100.82078 | 4493 ft | 203 kts | 109° |
| 2026-05-05 14:25 | 14.01541 | 100.83280 | 4179 ft | 202 kts | 139° |
| 2026-05-05 14:25 | 14.00259 | 100.83858 | 3883 ft | 202 kts | 171° |
| 2026-05-05 14:25 | 13.98866 | 100.83849 | 3652 ft | 199 kts | 187° |
| 2026-05-05 14:26 | 13.97505 | 100.83566 | 3424 ft | 198 kts | 192° |
| 2026-05-05 14:26 | 13.96181 | 100.83212 | 3181 ft | 197 kts | 193° |
| 2026-05-05 14:26 | 13.94861 | 100.82848 | 2960 ft | 192 kts | 193° |
| 2026-05-05 14:26 | 13.93574 | 100.82497 | 2749 ft | 188 kts | 193° |
| 2026-05-05 14:27 | 13.92349 | 100.82168 | 2667 ft | 175 kts | 193° |
| 2026-05-05 14:27 | 13.91170 | 100.81855 | 2672 ft | 172 kts | 193° |
| 2026-05-05 14:27 | 13.90005 | 100.81553 | 2659 ft | 172 kts | 193° |
| 2026-05-05 14:27 | 13.88841 | 100.81251 | 2620 ft | 164 kts | 193° |
| 2026-05-05 14:28 | 13.87782 | 100.80969 | 2518 ft | 150 kts | 192° |
| 2026-05-05 14:28 | 13.86776 | 100.80710 | 2314 ft | 147 kts | 192° |
| 2026-05-05 14:28 | 13.85780 | 100.80441 | 2099 ft | 147 kts | 194° |
| 2026-05-05 14:28 | 13.84813 | 100.80143 | 2033 ft | 141 kts | 195° |
| 2026-05-05 14:29 | 13.83880 | 100.79864 | 1977 ft | 140 kts | 192° |
| 2026-05-05 14:29 | 13.82919 | 100.79633 | 1927 ft | 140 kts | 190° |
| 2026-05-05 14:29 | 13.81941 | 100.79430 | 1915 ft | 143 kts | 190° |
| 2026-05-05 14:29 | 13.80964 | 100.79194 | 1927 ft | 145 kts | 194° |
| 2026-05-05 14:30 | 13.79985 | 100.78919 | 1923 ft | 144 kts | 194° |
| 2026-05-05 14:30 | 13.79002 | 100.78655 | 1810 ft | 145 kts | 193° |
| 2026-05-05 14:30 | 13.78018 | 100.78410 | 1691 ft | 146 kts | 192° |
| 2026-05-05 14:30 | 13.77023 | 100.78155 | 1522 ft | 147 kts | 193° |
| 2026-05-05 14:31 | 13.76026 | 100.77891 | 1296 ft | 151 kts | 193° |
| 2026-05-05 14:31 | 13.75000 | 100.77614 | 1126 ft | 149 kts | 194° |
| 2026-05-05 14:31 | 13.74011 | 100.77345 | 949 ft | 144 kts | 193° |
| 2026-05-05 14:31 | 13.73047 | 100.77100 | 735 ft | 141 kts | 194° |
| 2026-05-05 14:32 | 13.72088 | 100.76865 | 528 ft | 141 kts | 194° |
| 2026-05-05 14:32 | 13.71120 | 100.76611 | 400 ft | 143 kts | 194° |
| 2026-05-05 14:32 | 13.70153 | 100.76357 | 278 ft | 142 kts | 194° |
| 2026-05-05 14:32 | 13.69202 | 100.76109 | 137 ft | 138 kts | 194° |
| 2026-05-05 14:33 | 13.68286 | 100.75867 | 23 ft | 129 kts | 194° |
| 2026-05-05 14:33 | 13.67553 | 100.75670 | 20 ft | 81 kts | 195° |
| 2026-05-05 14:33 | 13.67133 | 100.75567 | 20 ft | 54 kts | 193° |
| 2026-05-05 14:33 | 13.66801 | 100.75458 | 20 ft | 43 kts | 212° |
| 2026-05-05 14:34 | 13.66662 | 100.75334 | 20 ft | 12 kts | 240° |
| 2026-05-05 14:34 | 13.66677 | 100.75281 | 20 ft | 7 kts | 335° |
| 2026-05-05 14:34 | 13.66737 | 100.75275 | 20 ft | 9 kts | 5° |
| 2026-05-05 14:34 | 13.66814 | 100.75290 | 21 ft | 13 kts | 13° |
| 2026-05-05 14:35 | 13.66918 | 100.75317 | 22 ft | 17 kts | 15° |
| 2026-05-05 14:35 | 13.67063 | 100.75356 | 21 ft | 25 kts | 14° |
| 2026-05-05 14:35 | 13.67254 | 100.75407 | 20 ft | 29 kts | 14° |
| 2026-05-05 14:35 | 13.67455 | 100.75460 | 20 ft | 29 kts | 14° |
| 2026-05-05 14:36 | 13.67656 | 100.75511 | 20 ft | 28 kts | 14° |
| 2026-05-05 14:36 | 13.67846 | 100.75560 | 20 ft | 27 kts | 14° |
| 2026-05-05 14:36 | 13.67992 | 100.75597 | 20 ft | 14 kts | 13° |
| 2026-05-05 14:36 | 13.68078 | 100.75604 | 20 ft | 12 kts | 339° |
| 2026-05-05 14:37 | 13.68120 | 100.75559 | 21 ft | 4 kts | 321° |
| 2026-05-05 14:37 | 13.68145 | 100.75552 | 21 ft | 4 kts | 355° |
| 2026-05-05 14:37 | 13.68192 | 100.75550 | 22 ft | 10 kts | 353° |
| 2026-05-05 14:37 | 13.68247 | 100.75500 | 23 ft | 14 kts | 294° |
| 2026-05-05 14:38 | 13.68288 | 100.75362 | 23 ft | 23 kts | 284° |
| 2026-05-05 14:38 | 13.68328 | 100.75201 | 23 ft | 22 kts | 284° |
| 2026-05-05 14:38 | 13.68355 | 100.75101 | 23 ft | 9 kts | 285° |
| 2026-05-05 14:38 | 13.68351 | 100.75050 | 23 ft | 6 kts | 224° |
| 2026-05-05 14:39 | 13.68308 | 100.75030 | 23 ft | 6 kts | 200° |
| 2026-05-05 14:39 | 13.68276 | 100.75020 | 23 ft | 3 kts | 195° |
| 2026-05-05 14:39 | 13.68272 | 100.75019 | 23 ft | 0 kts | 194° |